DLH529 MROC-EDDF
Flight info
| Callsign | DLH529 |
|---|---|
| Flight time | 11h 53m |
| Altitude | 32000 |
| Route | NANJO3R RADON DCT BLU UB767 PZA/N0496F340 UB767 GCM UM330 ENAMO/N0490F350 DCT GRATX/M083F350 DCT JIMAC DCT SOORY DCT 42N050W/M083F370 45N040W 47N030W 48N020W 48N015W DCT OMOKO DCT GUNSO/M083F390 DCT GAPLI/N0479F390 DCT SIDDI DCT DAWLY DCT GIBSO L620 SAM M140 DVR UL9 KONAN DCT KOK UL607 FERDI DCT REMBA DCT SPI T180 NIVNU T847 IMCOM IMCOM2C |
| Aircraft | A343/H-SDE2E3FGHIJ3J4J5M1RWXY/LB1D1 |
Departure
| Time | 2026-05-09 03:37 |
|---|---|
| Airport | Juan Santamaría International Airport (MROC) |
Arrival
| Time | 2026-05-09 15:30 |
|---|---|
| Airport | Frankfurt Main Airport (EDDF) |
| Time | Latitude | Longitude | Altitude | Speed | Heading |
|---|---|---|---|---|---|
| 2026-05-09 02:44 | 9.99816 | -84.20154 | 3045 ft | 0 kts | 339° |
| 2026-05-09 03:21 | 9.99815 | -84.20154 | 3044 ft | 1 kts | 339° |
| 2026-05-09 03:22 | 9.99804 | -84.20150 | 3042 ft | 3 kts | 339° |
| 2026-05-09 03:22 | 9.99786 | -84.20143 | 3043 ft | 3 kts | 346° |
| 2026-05-09 03:22 | 9.99770 | -84.20141 | 3042 ft | 3 kts | 10° |
| 2026-05-09 03:22 | 9.99767 | -84.20140 | 3042 ft | 3 kts | 47° |
| 2026-05-09 03:23 | 9.99772 | -84.20127 | 3043 ft | 3 kts | 73° |
| 2026-05-09 03:23 | 9.99775 | -84.20118 | 3043 ft | 1 kts | 69° |
| 2026-05-09 03:23 | 9.99776 | -84.20113 | 3041 ft | 3 kts | 67° |
| 2026-05-09 03:23 | 9.99771 | -84.20127 | 3043 ft | 0 kts | 69° |
| 2026-05-09 03:24 | 9.99791 | -84.20073 | 3043 ft | 0 kts | 250° |
| 2026-05-09 03:26 | 9.99791 | -84.20074 | 3043 ft | 1 kts | 250° |
| 2026-05-09 03:26 | 9.99787 | -84.20083 | 3043 ft | 2 kts | 250° |
| 2026-05-09 03:27 | 9.99780 | -84.20105 | 3043 ft | 4 kts | 250° |
| 2026-05-09 03:27 | 9.99768 | -84.20138 | 3042 ft | 6 kts | 250° |
| 2026-05-09 03:27 | 9.99765 | -84.20146 | 3042 ft | 6 kts | 250° |
| 2026-05-09 03:29 | 9.99754 | -84.20173 | 3044 ft | 6 kts | 249° |
| 2026-05-09 03:29 | 9.99753 | -84.20176 | 3042 ft | 6 kts | 249° |
| 2026-05-09 03:32 | 9.99752 | -84.20179 | 3043 ft | 6 kts | 249° |
| 2026-05-09 03:32 | 9.99735 | -84.20223 | 3044 ft | 7 kts | 249° |
| 2026-05-09 03:32 | 9.99718 | -84.20270 | 3044 ft | 7 kts | 249° |
| 2026-05-09 03:33 | 9.99692 | -84.20338 | 3043 ft | 13 kts | 249° |
| 2026-05-09 03:33 | 9.99653 | -84.20440 | 3044 ft | 18 kts | 249° |
| 2026-05-09 03:33 | 9.99603 | -84.20573 | 3044 ft | 23 kts | 249° |
| 2026-05-09 03:33 | 9.99541 | -84.20739 | 3042 ft | 27 kts | 249° |
| 2026-05-09 03:34 | 9.99468 | -84.20933 | 3038 ft | 33 kts | 249° |
| 2026-05-09 03:34 | 9.99377 | -84.21178 | 3014 ft | 40 kts | 249° |
| 2026-05-09 03:34 | 9.99278 | -84.21446 | 2995 ft | 41 kts | 249° |
| 2026-05-09 03:34 | 9.99170 | -84.21729 | 2977 ft | 43 kts | 249° |
| 2026-05-09 03:35 | 9.99100 | -84.22001 | 2965 ft | 35 kts | 274° |
| 2026-05-09 03:35 | 9.99062 | -84.22166 | 2951 ft | 21 kts | 234° |
| 2026-05-09 03:35 | 9.98945 | -84.22181 | 2948 ft | 10 kts | 161° |
| 2026-05-09 03:35 | 9.98926 | -84.22140 | 2950 ft | 6 kts | 81° |
| 2026-05-09 03:36 | 9.98958 | -84.22048 | 2960 ft | 38 kts | 69° |
| 2026-05-09 03:36 | 9.99135 | -84.21572 | 2989 ft | 104 kts | 69° |
| 2026-05-09 03:36 | 9.99464 | -84.20699 | 3039 ft | 158 kts | 69° |
| 2026-05-09 03:36 | 9.99913 | -84.19513 | 3206 ft | 188 kts | 68° |
| 2026-05-09 03:37 | 10.00462 | -84.18159 | 3995 ft | 187 kts | 52° |
| 2026-05-09 03:37 | 10.01615 | -84.17411 | 4619 ft | 187 kts | 0° |
| 2026-05-09 03:37 | 10.02839 | -84.17841 | 5094 ft | 180 kts | 316° |
| 2026-05-09 03:37 | 10.03648 | -84.18904 | 5407 ft | 191 kts | 306° |
| 2026-05-09 03:38 | 10.04469 | -84.20053 | 5932 ft | 193 kts | 309° |
| 2026-05-09 03:38 | 10.05299 | -84.21162 | 6463 ft | 196 kts | 303° |
| 2026-05-09 03:38 | 10.05899 | -84.22428 | 6985 ft | 198 kts | 293° |
| 2026-05-09 03:38 | 10.06367 | -84.23769 | 7521 ft | 200 kts | 291° |
| 2026-05-09 03:39 | 10.06836 | -84.25138 | 8029 ft | 203 kts | 292° |
| 2026-05-09 03:39 | 10.07343 | -84.26571 | 8362 ft | 215 kts | 293° |
| 2026-05-09 03:39 | 10.07899 | -84.28100 | 8654 ft | 229 kts | 293° |
| 2026-05-09 03:39 | 10.08477 | -84.29674 | 9023 ft | 237 kts | 293° |
| 2026-05-09 03:40 | 10.09087 | -84.31327 | 9365 ft | 250 kts | 294° |
| 2026-05-09 03:40 | 10.10026 | -84.32901 | 9590 ft | 263 kts | 319° |
| 2026-05-09 03:40 | 10.11633 | -84.33890 | 9875 ft | 275 kts | 345° |
| 2026-05-09 03:40 | 10.13682 | -84.33988 | 10166 ft | 292 kts | 13° |
| 2026-05-09 03:41 | 10.15637 | -84.33214 | 10463 ft | 306 kts | 22° |
| 2026-05-09 03:41 | 10.17692 | -84.32275 | 10826 ft | 316 kts | 22° |
| 2026-05-09 03:41 | 10.19786 | -84.31332 | 11076 ft | 329 kts | 22° |
| 2026-05-09 03:41 | 10.21979 | -84.30357 | 11329 ft | 343 kts | 22° |
| 2026-05-09 03:42 | 10.24263 | -84.29350 | 11604 ft | 358 kts | 22° |
| 2026-05-09 03:42 | 10.26647 | -84.28302 | 11908 ft | 372 kts | 22° |
| 2026-05-09 03:42 | 10.29089 | -84.27171 | 12350 ft | 380 kts | 24° |
| 2026-05-09 03:42 | 10.31510 | -84.25976 | 13003 ft | 384 kts | 23° |
| 2026-05-09 03:43 | 10.34054 | -84.24718 | 13592 ft | 391 kts | 23° |
| 2026-05-09 03:43 | 10.36555 | -84.23487 | 14028 ft | 399 kts | 23° |
| 2026-05-09 03:43 | 10.39072 | -84.22249 | 14488 ft | 406 kts | 23° |
| 2026-05-09 03:43 | 10.41748 | -84.20934 | 14986 ft | 413 kts | 23° |
| 2026-05-09 03:44 | 10.44393 | -84.19632 | 15484 ft | 420 kts | 24° |
| 2026-05-09 03:44 | 10.47090 | -84.18304 | 15986 ft | 425 kts | 24° |
| 2026-05-09 03:44 | 10.49909 | -84.16916 | 16496 ft | 431 kts | 25° |
| 2026-05-09 03:44 | 10.52688 | -84.15546 | 17003 ft | 436 kts | 25° |
| 2026-05-09 03:45 | 10.55483 | -84.14167 | 17515 ft | 441 kts | 26° |
| 2026-05-09 03:45 | 10.58328 | -84.12763 | 18017 ft | 445 kts | 26° |
| 2026-05-09 03:45 | 10.61237 | -84.11324 | 18546 ft | 449 kts | 27° |
| 2026-05-09 03:45 | 10.63138 | -84.10386 | 18899 ft | 451 kts | 27° |
| 2026-05-09 03:46 | 10.66122 | -84.08913 | 19447 ft | 453 kts | 27° |
| 2026-05-09 03:46 | 10.69136 | -84.07561 | 20001 ft | 457 kts | 23° |
| 2026-05-09 03:46 | 10.72339 | -84.06439 | 20586 ft | 460 kts | 19° |
| 2026-05-09 03:46 | 10.75587 | -84.05594 | 21137 ft | 462 kts | 15° |
| 2026-05-09 03:47 | 10.78929 | -84.04834 | 21700 ft | 464 kts | 15° |
| 2026-05-09 03:47 | 10.82201 | -84.04106 | 22259 ft | 464 kts | 15° |
| 2026-05-09 03:47 | 10.85456 | -84.03378 | 22798 ft | 465 kts | 16° |
| 2026-05-09 03:47 | 10.88621 | -84.02664 | 23290 ft | 466 kts | 17° |
| 2026-05-09 03:48 | 10.91796 | -84.01945 | 23846 ft | 465 kts | 17° |
| 2026-05-09 03:48 | 10.94961 | -84.01225 | 24453 ft | 462 kts | 17° |
| 2026-05-09 03:48 | 10.98111 | -84.00505 | 25001 ft | 461 kts | 17° |
| 2026-05-09 03:48 | 11.01260 | -83.99784 | 25553 ft | 459 kts | 17° |
| 2026-05-09 03:49 | 11.04367 | -83.99071 | 26090 ft | 457 kts | 17° |
| 2026-05-09 03:49 | 11.07539 | -83.98344 | 26614 ft | 456 kts | 17° |
| 2026-05-09 03:49 | 11.10635 | -83.97633 | 27061 ft | 456 kts | 16° |
| 2026-05-09 03:49 | 11.13736 | -83.96920 | 27539 ft | 455 kts | 16° |
| 2026-05-09 03:50 | 11.16781 | -83.96222 | 27974 ft | 454 kts | 15° |
| 2026-05-09 03:50 | 11.19901 | -83.95506 | 28442 ft | 453 kts | 15° |
| 2026-05-09 03:50 | 11.22923 | -83.94815 | 28997 ft | 449 kts | 15° |
| 2026-05-09 03:50 | 11.26002 | -83.94114 | 29536 ft | 446 kts | 15° |
| 2026-05-09 03:51 | 11.29045 | -83.93420 | 29986 ft | 445 kts | 15° |
| 2026-05-09 03:51 | 11.31996 | -83.92746 | 30340 ft | 445 kts | 15° |
| 2026-05-09 03:51 | 11.35065 | -83.92044 | 30645 ft | 447 kts | 15° |
| 2026-05-09 03:51 | 11.38125 | -83.91343 | 30931 ft | 449 kts | 15° |
| 2026-05-09 03:52 | 11.41211 | -83.90636 | 31236 ft | 450 kts | 15° |
| 2026-05-09 03:52 | 11.44232 | -83.89944 | 31526 ft | 451 kts | 15° |
| 2026-05-09 03:52 | 11.47310 | -83.89238 | 31741 ft | 453 kts | 15° |
| 2026-05-09 03:52 | 11.50384 | -83.88533 | 31739 ft | 453 kts | 15° |
| 2026-05-09 03:53 | 11.56556 | -83.87118 | 31742 ft | 454 kts | 15° |
| 2026-05-09 03:53 | 11.62727 | -83.85702 | 31744 ft | 454 kts | 15° |
| 2026-05-09 03:54 | 11.68891 | -83.84287 | 31744 ft | 454 kts | 15° |
| 2026-05-09 03:54 | 11.75071 | -83.82868 | 31744 ft | 454 kts | 15° |
| 2026-05-09 03:55 | 11.81245 | -83.81450 | 31745 ft | 453 kts | 15° |
| 2026-05-09 03:55 | 11.87415 | -83.80032 | 31744 ft | 453 kts | 15° |
| 2026-05-09 03:56 | 11.93576 | -83.78616 | 31744 ft | 453 kts | 15° |
| 2026-05-09 03:56 | 11.99741 | -83.77222 | 31744 ft | 454 kts | 13° |
| 2026-05-09 03:57 | 12.05977 | -83.76042 | 31744 ft | 454 kts | 12° |
| 2026-05-09 03:57 | 12.12212 | -83.74884 | 31743 ft | 454 kts | 12° |
| 2026-05-09 03:58 | 12.18448 | -83.73725 | 31743 ft | 454 kts | 12° |
| 2026-05-09 03:58 | 12.24725 | -83.72557 | 31743 ft | 454 kts | 12° |
| 2026-05-09 03:59 | 12.30946 | -83.71399 | 31744 ft | 454 kts | 12° |
| 2026-05-09 03:59 | 12.37160 | -83.70241 | 31744 ft | 454 kts | 12° |
| 2026-05-09 04:00 | 12.43391 | -83.69079 | 31744 ft | 454 kts | 12° |
| 2026-05-09 04:00 | 12.49632 | -83.67915 | 31744 ft | 454 kts | 13° |
| 2026-05-09 04:01 | 12.55908 | -83.66743 | 31744 ft | 454 kts | 13° |
| 2026-05-09 04:01 | 12.62131 | -83.65581 | 31744 ft | 454 kts | 13° |
| 2026-05-09 04:02 | 12.68355 | -83.64418 | 31744 ft | 454 kts | 13° |
| 2026-05-09 04:02 | 12.74573 | -83.63256 | 31743 ft | 454 kts | 13° |
| 2026-05-09 04:03 | 12.80791 | -83.62093 | 31744 ft | 454 kts | 13° |
| 2026-05-09 04:03 | 12.87019 | -83.60928 | 31744 ft | 454 kts | 13° |
| 2026-05-09 04:04 | 12.93238 | -83.59763 | 31744 ft | 454 kts | 12° |
| 2026-05-09 04:04 | 12.99466 | -83.58597 | 31743 ft | 454 kts | 13° |
| 2026-05-09 04:05 | 13.05698 | -83.57429 | 31744 ft | 454 kts | 13° |
| 2026-05-09 04:05 | 13.11879 | -83.56270 | 31744 ft | 454 kts | 13° |
| 2026-05-09 04:06 | 13.18089 | -83.55105 | 31744 ft | 454 kts | 13° |
| 2026-05-09 04:06 | 13.24305 | -83.53939 | 31744 ft | 454 kts | 13° |
| 2026-05-09 04:07 | 13.30541 | -83.52768 | 31744 ft | 454 kts | 13° |
| 2026-05-09 04:07 | 13.36764 | -83.51598 | 31744 ft | 454 kts | 13° |
| 2026-05-09 04:08 | 13.43017 | -83.50423 | 31744 ft | 454 kts | 13° |
| 2026-05-09 04:08 | 13.49222 | -83.49256 | 31744 ft | 454 kts | 13° |
| 2026-05-09 04:09 | 13.55434 | -83.48087 | 31744 ft | 454 kts | 13° |
| 2026-05-09 04:09 | 13.61670 | -83.46913 | 31744 ft | 454 kts | 13° |
| 2026-05-09 04:10 | 13.67923 | -83.45735 | 31744 ft | 454 kts | 13° |
| 2026-05-09 04:10 | 13.74178 | -83.44556 | 31744 ft | 454 kts | 13° |
| 2026-05-09 04:11 | 13.80405 | -83.43381 | 31744 ft | 454 kts | 13° |
| 2026-05-09 04:11 | 13.86616 | -83.42210 | 31744 ft | 454 kts | 13° |
| 2026-05-09 04:12 | 13.92833 | -83.41037 | 31744 ft | 454 kts | 13° |
| 2026-05-09 04:12 | 13.99062 | -83.39861 | 31744 ft | 454 kts | 13° |
| 2026-05-09 04:13 | 14.05218 | -83.38385 | 31744 ft | 452 kts | 18° |
| 2026-05-09 04:13 | 14.11192 | -83.36339 | 31744 ft | 452 kts | 21° |
| 2026-05-09 04:14 | 14.17269 | -83.34066 | 31744 ft | 451 kts | 21° |
| 2026-05-09 04:14 | 14.23295 | -83.31807 | 31744 ft | 451 kts | 21° |
| 2026-05-09 04:15 | 14.29255 | -83.29574 | 31744 ft | 451 kts | 21° |
| 2026-05-09 04:15 | 14.35171 | -83.27358 | 31744 ft | 451 kts | 21° |
| 2026-05-09 04:16 | 14.41079 | -83.25144 | 31744 ft | 451 kts | 21° |
| 2026-05-09 04:16 | 14.47031 | -83.22912 | 31743 ft | 451 kts | 21° |
| 2026-05-09 04:17 | 14.52937 | -83.20696 | 31744 ft | 451 kts | 21° |
| 2026-05-09 04:17 | 14.58848 | -83.18477 | 31744 ft | 451 kts | 21° |
| 2026-05-09 04:18 | 14.64706 | -83.16276 | 31744 ft | 451 kts | 21° |
| 2026-05-09 04:18 | 14.70658 | -83.14039 | 31744 ft | 451 kts | 21° |
| 2026-05-09 04:19 | 14.76557 | -83.11821 | 31744 ft | 451 kts | 21° |
| 2026-05-09 04:19 | 14.82507 | -83.09582 | 31744 ft | 451 kts | 21° |
| 2026-05-09 04:20 | 14.88409 | -83.07360 | 31744 ft | 451 kts | 21° |
| 2026-05-09 04:20 | 14.94313 | -83.05136 | 31744 ft | 451 kts | 21° |
| 2026-05-09 04:21 | 15.00236 | -83.02904 | 31744 ft | 451 kts | 21° |
| 2026-05-09 04:22 | 15.09115 | -82.99555 | 31744 ft | 451 kts | 21° |
| 2026-05-09 04:22 | 15.15024 | -82.97325 | 31744 ft | 451 kts | 21° |
| 2026-05-09 04:23 | 15.20949 | -82.95087 | 31744 ft | 451 kts | 21° |
| 2026-05-09 04:23 | 15.26850 | -82.92857 | 31744 ft | 451 kts | 21° |
| 2026-05-09 04:24 | 15.32757 | -82.90623 | 31744 ft | 451 kts | 21° |
| 2026-05-09 04:24 | 15.38658 | -82.88392 | 31744 ft | 451 kts | 21° |
| 2026-05-09 04:25 | 15.44558 | -82.86160 | 31744 ft | 451 kts | 21° |
| 2026-05-09 04:25 | 15.50463 | -82.83925 | 31744 ft | 451 kts | 21° |
| 2026-05-09 04:26 | 15.56363 | -82.81690 | 31744 ft | 451 kts | 21° |
| 2026-05-09 04:26 | 15.62270 | -82.79451 | 31744 ft | 451 kts | 21° |
| 2026-05-09 04:27 | 15.68172 | -82.77213 | 31744 ft | 451 kts | 21° |
| 2026-05-09 04:27 | 15.74034 | -82.74989 | 31744 ft | 451 kts | 21° |
| 2026-05-09 04:28 | 15.79935 | -82.72748 | 31744 ft | 451 kts | 21° |
| 2026-05-09 04:28 | 15.85870 | -82.70493 | 31744 ft | 451 kts | 21° |
| 2026-05-09 04:29 | 15.91799 | -82.68239 | 31744 ft | 452 kts | 21° |
| 2026-05-09 04:29 | 15.97702 | -82.65994 | 31744 ft | 451 kts | 21° |
| 2026-05-09 04:30 | 16.03618 | -82.63742 | 31744 ft | 451 kts | 21° |
| 2026-05-09 04:30 | 16.08568 | -82.61856 | 31744 ft | 451 kts | 21° |
| 2026-05-09 04:31 | 16.14463 | -82.59610 | 31744 ft | 451 kts | 21° |
| 2026-05-09 04:31 | 16.20323 | -82.57376 | 31744 ft | 452 kts | 21° |
| 2026-05-09 04:32 | 16.26225 | -82.55123 | 31744 ft | 451 kts | 21° |
| 2026-05-09 04:32 | 16.32154 | -82.52859 | 32179 ft | 454 kts | 21° |
| 2026-05-09 04:32 | 16.35105 | -82.51732 | 32698 ft | 449 kts | 21° |
| 2026-05-09 04:33 | 16.38034 | -82.50614 | 33174 ft | 447 kts | 21° |
| 2026-05-09 04:33 | 16.40950 | -82.49499 | 33538 ft | 446 kts | 21° |
| 2026-05-09 04:33 | 16.43904 | -82.48370 | 33740 ft | 447 kts | 21° |
| 2026-05-09 04:34 | 16.49701 | -82.46151 | 33741 ft | 446 kts | 21° |
| 2026-05-09 04:34 | 16.55526 | -82.43921 | 33741 ft | 446 kts | 21° |
| 2026-05-09 04:35 | 16.61357 | -82.41688 | 33740 ft | 446 kts | 21° |
| 2026-05-09 04:35 | 16.67185 | -82.39454 | 33744 ft | 446 kts | 21° |
| 2026-05-09 04:36 | 16.73009 | -82.37221 | 33745 ft | 446 kts | 21° |
| 2026-05-09 04:36 | 16.78842 | -82.34982 | 33741 ft | 446 kts | 21° |
| 2026-05-09 04:37 | 16.84668 | -82.32744 | 33745 ft | 446 kts | 21° |
| 2026-05-09 04:37 | 16.90495 | -82.30505 | 33743 ft | 446 kts | 22° |
| 2026-05-09 04:38 | 16.96317 | -82.28266 | 33742 ft | 446 kts | 22° |
| 2026-05-09 04:38 | 17.02162 | -82.26017 | 33741 ft | 446 kts | 22° |
| 2026-05-09 04:39 | 17.07992 | -82.23771 | 33744 ft | 446 kts | 22° |
| 2026-05-09 04:39 | 17.13813 | -82.21528 | 33742 ft | 446 kts | 22° |
| 2026-05-09 04:40 | 17.19642 | -82.19280 | 33749 ft | 446 kts | 22° |
| 2026-05-09 04:40 | 17.25464 | -82.17034 | 33741 ft | 446 kts | 22° |
| 2026-05-09 04:41 | 17.31294 | -82.14784 | 33742 ft | 446 kts | 22° |
| 2026-05-09 04:41 | 17.37117 | -82.12535 | 33744 ft | 446 kts | 22° |
| 2026-05-09 04:42 | 17.42940 | -82.10284 | 33741 ft | 446 kts | 22° |
| 2026-05-09 04:42 | 17.48734 | -82.08043 | 33746 ft | 446 kts | 22° |
| 2026-05-09 04:43 | 17.54558 | -82.05788 | 33745 ft | 446 kts | 22° |
| 2026-05-09 04:43 | 17.60392 | -82.03522 | 33741 ft | 446 kts | 22° |
| 2026-05-09 04:44 | 17.66259 | -82.01235 | 33744 ft | 446 kts | 22° |
| 2026-05-09 04:44 | 17.72049 | -81.98976 | 33741 ft | 446 kts | 22° |
| 2026-05-09 04:45 | 17.77868 | -81.96706 | 33743 ft | 446 kts | 22° |
| 2026-05-09 04:45 | 17.83685 | -81.94435 | 33743 ft | 446 kts | 22° |
| 2026-05-09 04:46 | 17.89514 | -81.92158 | 33742 ft | 446 kts | 22° |
| 2026-05-09 04:46 | 17.95368 | -81.89869 | 33746 ft | 446 kts | 22° |
| 2026-05-09 04:47 | 18.01166 | -81.87601 | 33741 ft | 446 kts | 22° |
| 2026-05-09 04:47 | 18.07001 | -81.85317 | 33747 ft | 446 kts | 22° |
| 2026-05-09 04:48 | 18.12815 | -81.83040 | 33739 ft | 446 kts | 22° |
| 2026-05-09 04:48 | 18.18640 | -81.80756 | 33744 ft | 446 kts | 22° |
| 2026-05-09 04:49 | 18.24455 | -81.78475 | 33745 ft | 446 kts | 22° |
| 2026-05-09 04:49 | 18.30297 | -81.76182 | 33740 ft | 446 kts | 22° |
| 2026-05-09 04:50 | 18.36115 | -81.73896 | 33745 ft | 446 kts | 22° |
| 2026-05-09 04:50 | 18.41931 | -81.71610 | 33747 ft | 446 kts | 22° |
| 2026-05-09 04:51 | 18.47745 | -81.69322 | 33745 ft | 446 kts | 22° |
| 2026-05-09 04:51 | 18.53567 | -81.67030 | 33741 ft | 446 kts | 22° |
| 2026-05-09 04:52 | 18.59380 | -81.64739 | 33741 ft | 446 kts | 22° |
| 2026-05-09 04:52 | 18.65196 | -81.62446 | 33742 ft | 446 kts | 22° |
| 2026-05-09 04:53 | 18.70971 | -81.60167 | 33743 ft | 446 kts | 22° |
| 2026-05-09 04:53 | 18.76789 | -81.57870 | 33741 ft | 446 kts | 22° |
| 2026-05-09 04:54 | 18.82630 | -81.55562 | 33746 ft | 446 kts | 22° |
| 2026-05-09 04:54 | 18.88440 | -81.53264 | 33741 ft | 446 kts | 22° |
| 2026-05-09 04:55 | 18.94311 | -81.50941 | 33748 ft | 446 kts | 22° |
| 2026-05-09 04:55 | 19.00113 | -81.48643 | 33748 ft | 446 kts | 22° |
| 2026-05-09 04:56 | 19.05936 | -81.46336 | 33741 ft | 446 kts | 22° |
| 2026-05-09 04:56 | 19.11761 | -81.44025 | 33744 ft | 446 kts | 22° |
| 2026-05-09 04:57 | 19.17588 | -81.41712 | 33747 ft | 446 kts | 22° |
| 2026-05-09 04:57 | 19.23328 | -81.39149 | 33739 ft | 445 kts | 27° |
| 2026-05-09 04:58 | 19.28782 | -81.36030 | 33742 ft | 445 kts | 32° |
| 2026-05-09 04:58 | 19.33932 | -81.32367 | 33742 ft | 444 kts | 37° |
| 2026-05-09 04:59 | 19.38727 | -81.28227 | 33746 ft | 444 kts | 40° |
| 2026-05-09 04:59 | 19.43409 | -81.23937 | 33743 ft | 444 kts | 41° |
| 2026-05-09 05:00 | 19.48079 | -81.19649 | 33743 ft | 444 kts | 41° |
| 2026-05-09 05:00 | 19.52749 | -81.15358 | 33745 ft | 444 kts | 41° |
| 2026-05-09 05:01 | 19.57425 | -81.11060 | 33745 ft | 444 kts | 41° |
| 2026-05-09 05:01 | 19.62111 | -81.06749 | 33740 ft | 444 kts | 41° |
| 2026-05-09 05:02 | 19.66747 | -81.02482 | 33751 ft | 444 kts | 41° |
| 2026-05-09 05:02 | 19.71431 | -80.98166 | 33742 ft | 444 kts | 41° |
| 2026-05-09 05:03 | 19.76106 | -80.93856 | 33745 ft | 444 kts | 41° |
| 2026-05-09 05:03 | 19.80771 | -80.89551 | 33743 ft | 444 kts | 41° |
| 2026-05-09 05:04 | 19.85464 | -80.85218 | 33743 ft | 444 kts | 41° |
| 2026-05-09 05:04 | 19.90130 | -80.80905 | 33744 ft | 444 kts | 41° |
| 2026-05-09 05:05 | 19.94796 | -80.76589 | 33740 ft | 444 kts | 41° |
| 2026-05-09 05:05 | 19.99479 | -80.72254 | 33746 ft | 444 kts | 41° |
| 2026-05-09 05:06 | 20.04151 | -80.67924 | 33740 ft | 444 kts | 41° |
| 2026-05-09 05:06 | 20.08810 | -80.63604 | 33747 ft | 444 kts | 41° |
| 2026-05-09 05:07 | 20.13442 | -80.59305 | 33744 ft | 444 kts | 41° |
| 2026-05-09 05:07 | 20.18148 | -80.54934 | 33744 ft | 444 kts | 41° |
| 2026-05-09 05:08 | 20.22804 | -80.50605 | 33740 ft | 444 kts | 41° |
| 2026-05-09 05:08 | 20.27465 | -80.46268 | 33741 ft | 444 kts | 41° |
| 2026-05-09 05:09 | 20.32123 | -80.41930 | 33746 ft | 444 kts | 41° |
| 2026-05-09 05:09 | 20.36759 | -80.37609 | 33744 ft | 444 kts | 41° |
| 2026-05-09 05:10 | 20.41414 | -80.33268 | 33742 ft | 444 kts | 41° |
| 2026-05-09 05:10 | 20.46173 | -80.28826 | 33742 ft | 444 kts | 41° |
| 2026-05-09 05:11 | 20.50873 | -80.24435 | 33740 ft | 444 kts | 41° |
| 2026-05-09 05:11 | 20.55542 | -80.20067 | 33743 ft | 444 kts | 41° |
| 2026-05-09 05:12 | 20.60203 | -80.15700 | 33742 ft | 444 kts | 41° |
| 2026-05-09 05:12 | 20.64820 | -80.11372 | 33744 ft | 444 kts | 41° |
| 2026-05-09 05:13 | 20.69481 | -80.06998 | 33744 ft | 444 kts | 41° |
| 2026-05-09 05:13 | 20.74176 | -80.02589 | 33751 ft | 444 kts | 41° |
| 2026-05-09 05:14 | 20.78783 | -79.98258 | 33740 ft | 444 kts | 41° |
| 2026-05-09 05:14 | 20.83445 | -79.93873 | 33748 ft | 444 kts | 41° |
| 2026-05-09 05:15 | 20.88089 | -79.89500 | 33743 ft | 444 kts | 41° |
| 2026-05-09 05:15 | 20.92747 | -79.85111 | 33744 ft | 444 kts | 41° |
| 2026-05-09 05:16 | 20.97387 | -79.80734 | 33747 ft | 444 kts | 41° |
| 2026-05-09 05:16 | 21.02072 | -79.76312 | 33740 ft | 444 kts | 41° |
| 2026-05-09 05:17 | 21.06729 | -79.71912 | 33744 ft | 444 kts | 41° |
| 2026-05-09 05:17 | 21.10585 | -79.68266 | 33741 ft | 444 kts | 41° |
| 2026-05-09 05:18 | 21.15237 | -79.63864 | 33742 ft | 444 kts | 41° |
| 2026-05-09 05:18 | 21.19925 | -79.59424 | 33748 ft | 444 kts | 41° |
| 2026-05-09 05:19 | 21.25372 | -79.54260 | 33741 ft | 444 kts | 41° |
| 2026-05-09 05:19 | 21.29270 | -79.50560 | 33743 ft | 444 kts | 41° |
| 2026-05-09 05:20 | 21.33915 | -79.46153 | 33742 ft | 444 kts | 41° |
| 2026-05-09 05:20 | 21.38624 | -79.41681 | 33740 ft | 444 kts | 41° |
| 2026-05-09 05:21 | 21.43268 | -79.37267 | 33742 ft | 444 kts | 41° |
| 2026-05-09 05:21 | 21.47946 | -79.32817 | 33742 ft | 444 kts | 41° |
| 2026-05-09 05:22 | 21.52577 | -79.28407 | 33750 ft | 444 kts | 41° |
| 2026-05-09 05:22 | 21.57214 | -79.23987 | 33740 ft | 445 kts | 41° |
| 2026-05-09 05:22 | 21.59548 | -79.21762 | 33897 ft | 449 kts | 41° |
| 2026-05-09 05:23 | 21.61883 | -79.19534 | 34330 ft | 445 kts | 41° |
| 2026-05-09 05:23 | 21.64197 | -79.17325 | 34689 ft | 443 kts | 41° |
| 2026-05-09 05:23 | 21.66506 | -79.15120 | 34740 ft | 442 kts | 41° |
| 2026-05-09 05:24 | 21.71111 | -79.10719 | 34741 ft | 442 kts | 41° |
| 2026-05-09 05:24 | 21.75718 | -79.06311 | 34744 ft | 442 kts | 41° |
| 2026-05-09 05:25 | 21.80316 | -79.01909 | 34742 ft | 442 kts | 41° |
| 2026-05-09 05:25 | 21.87223 | -78.95289 | 34743 ft | 442 kts | 41° |
| 2026-05-09 05:26 | 21.91845 | -78.90853 | 34743 ft | 442 kts | 41° |
| 2026-05-09 05:26 | 21.96443 | -78.86437 | 34745 ft | 442 kts | 41° |
| 2026-05-09 05:27 | 22.01057 | -78.82000 | 34744 ft | 442 kts | 41° |
| 2026-05-09 05:27 | 22.05718 | -78.77633 | 34742 ft | 442 kts | 40° |
| 2026-05-09 05:28 | 22.10459 | -78.73252 | 34742 ft | 442 kts | 40° |
| 2026-05-09 05:28 | 22.15103 | -78.68947 | 34745 ft | 442 kts | 40° |
| 2026-05-09 05:29 | 22.19775 | -78.64607 | 34745 ft | 442 kts | 40° |
| 2026-05-09 05:29 | 22.24445 | -78.60262 | 34745 ft | 442 kts | 40° |
| 2026-05-09 05:30 | 22.29110 | -78.55917 | 34741 ft | 442 kts | 40° |
| 2026-05-09 05:30 | 22.33803 | -78.51542 | 34745 ft | 442 kts | 40° |
| 2026-05-09 05:31 | 22.38466 | -78.47192 | 34743 ft | 442 kts | 40° |
| 2026-05-09 05:31 | 22.43118 | -78.42847 | 34742 ft | 442 kts | 40° |
| 2026-05-09 05:32 | 22.47808 | -78.38462 | 34746 ft | 442 kts | 40° |
| 2026-05-09 05:32 | 22.52563 | -78.34012 | 34743 ft | 442 kts | 40° |
| 2026-05-09 05:33 | 22.57230 | -78.29642 | 34743 ft | 442 kts | 40° |
| 2026-05-09 05:33 | 22.61913 | -78.25252 | 34740 ft | 442 kts | 41° |
| 2026-05-09 05:34 | 22.66576 | -78.20877 | 34744 ft | 442 kts | 41° |
| 2026-05-09 05:34 | 22.71264 | -78.16473 | 34745 ft | 442 kts | 41° |
| 2026-05-09 05:35 | 22.75923 | -78.12093 | 34742 ft | 442 kts | 41° |
| 2026-05-09 05:35 | 22.80592 | -78.07699 | 34743 ft | 442 kts | 41° |
| 2026-05-09 05:36 | 22.85246 | -78.03316 | 34740 ft | 442 kts | 41° |
| 2026-05-09 05:36 | 22.89889 | -77.98938 | 34744 ft | 442 kts | 41° |
| 2026-05-09 05:37 | 22.94533 | -77.94556 | 34745 ft | 442 kts | 41° |
| 2026-05-09 05:37 | 22.99166 | -77.90178 | 34746 ft | 442 kts | 41° |
| 2026-05-09 05:38 | 23.03815 | -77.85782 | 34743 ft | 442 kts | 41° |
| 2026-05-09 05:38 | 23.08447 | -77.81398 | 34743 ft | 442 kts | 41° |
| 2026-05-09 05:39 | 23.13098 | -77.76991 | 34746 ft | 442 kts | 41° |
| 2026-05-09 05:39 | 23.17722 | -77.72606 | 34746 ft | 442 kts | 41° |
| 2026-05-09 05:40 | 23.22392 | -77.68174 | 34741 ft | 442 kts | 41° |
| 2026-05-09 05:40 | 23.27042 | -77.63755 | 34745 ft | 442 kts | 41° |
| 2026-05-09 05:41 | 23.31686 | -77.59339 | 34744 ft | 442 kts | 41° |
| 2026-05-09 05:41 | 23.36336 | -77.54916 | 34745 ft | 442 kts | 41° |
| 2026-05-09 05:42 | 23.40969 | -77.50504 | 34742 ft | 442 kts | 41° |
| 2026-05-09 05:42 | 23.45599 | -77.46090 | 34742 ft | 442 kts | 41° |
| 2026-05-09 05:43 | 23.50247 | -77.41654 | 34744 ft | 442 kts | 41° |
| 2026-05-09 05:43 | 23.54876 | -77.37232 | 34745 ft | 442 kts | 41° |
| 2026-05-09 05:44 | 23.59620 | -77.32933 | 34743 ft | 442 kts | 39° |
| 2026-05-09 05:44 | 23.64397 | -77.28712 | 34746 ft | 442 kts | 39° |
| 2026-05-09 05:45 | 23.69178 | -77.24483 | 34741 ft | 442 kts | 39° |
| 2026-05-09 05:45 | 23.73952 | -77.20255 | 34740 ft | 442 kts | 39° |
| 2026-05-09 05:46 | 23.78727 | -77.16020 | 34739 ft | 442 kts | 39° |
| 2026-05-09 05:46 | 23.83522 | -77.11762 | 34743 ft | 442 kts | 39° |
| 2026-05-09 05:47 | 23.88301 | -77.07514 | 34744 ft | 442 kts | 39° |
| 2026-05-09 05:47 | 23.93080 | -77.03262 | 34743 ft | 442 kts | 39° |
| 2026-05-09 05:48 | 23.97883 | -76.98985 | 34744 ft | 442 kts | 39° |
| 2026-05-09 05:48 | 24.02653 | -76.94732 | 34743 ft | 442 kts | 39° |
| 2026-05-09 05:49 | 24.07452 | -76.90450 | 34744 ft | 442 kts | 39° |
| 2026-05-09 05:49 | 24.12248 | -76.86166 | 34742 ft | 442 kts | 39° |
| 2026-05-09 05:50 | 24.17052 | -76.81870 | 34742 ft | 442 kts | 39° |
| 2026-05-09 05:50 | 24.21829 | -76.77595 | 34743 ft | 442 kts | 39° |
| 2026-05-09 05:51 | 24.26601 | -76.73319 | 34745 ft | 442 kts | 39° |
| 2026-05-09 05:51 | 24.31366 | -76.69045 | 34743 ft | 442 kts | 39° |
| 2026-05-09 05:52 | 24.36142 | -76.64758 | 34746 ft | 442 kts | 39° |
| 2026-05-09 05:52 | 24.40896 | -76.60485 | 34745 ft | 442 kts | 39° |
| 2026-05-09 05:53 | 24.45671 | -76.56190 | 34743 ft | 442 kts | 39° |
| 2026-05-09 05:53 | 24.50399 | -76.51933 | 34744 ft | 442 kts | 39° |
| 2026-05-09 05:54 | 24.55185 | -76.47619 | 34744 ft | 442 kts | 39° |
| 2026-05-09 05:54 | 24.59945 | -76.43325 | 34743 ft | 442 kts | 39° |
| 2026-05-09 05:55 | 24.64738 | -76.38995 | 34746 ft | 442 kts | 39° |
| 2026-05-09 05:55 | 24.69511 | -76.34681 | 34746 ft | 442 kts | 39° |
| 2026-05-09 05:56 | 24.74282 | -76.30362 | 34742 ft | 442 kts | 39° |
| 2026-05-09 05:56 | 24.79036 | -76.26056 | 34744 ft | 442 kts | 39° |
| 2026-05-09 05:57 | 24.83784 | -76.21750 | 34743 ft | 442 kts | 39° |
| 2026-05-09 05:57 | 24.88544 | -76.17429 | 34742 ft | 442 kts | 39° |
| 2026-05-09 05:58 | 24.93292 | -76.13114 | 34746 ft | 442 kts | 39° |
| 2026-05-09 05:58 | 24.98040 | -76.08795 | 34743 ft | 442 kts | 39° |
| 2026-05-09 05:59 | 25.02792 | -76.04467 | 34741 ft | 442 kts | 39° |
| 2026-05-09 05:59 | 25.07552 | -76.00128 | 34740 ft | 442 kts | 39° |
| 2026-05-09 06:00 | 25.12296 | -75.95799 | 34743 ft | 442 kts | 39° |
| 2026-05-09 06:00 | 25.17028 | -75.91476 | 34745 ft | 442 kts | 39° |
| 2026-05-09 06:01 | 25.21770 | -75.87139 | 34746 ft | 442 kts | 39° |
| 2026-05-09 06:01 | 25.26510 | -75.82800 | 34744 ft | 442 kts | 39° |
| 2026-05-09 06:02 | 25.31249 | -75.78458 | 34746 ft | 442 kts | 39° |
| 2026-05-09 06:02 | 25.35981 | -75.74117 | 34746 ft | 442 kts | 39° |
| 2026-05-09 06:03 | 25.40731 | -75.69755 | 34742 ft | 442 kts | 39° |
| 2026-05-09 06:03 | 25.45470 | -75.65398 | 34745 ft | 442 kts | 39° |
| 2026-05-09 06:04 | 25.49403 | -75.61780 | 34742 ft | 442 kts | 40° |
| 2026-05-09 06:04 | 25.54148 | -75.57409 | 34743 ft | 442 kts | 40° |
| 2026-05-09 06:05 | 25.58886 | -75.53040 | 34746 ft | 442 kts | 40° |
| 2026-05-09 06:05 | 25.63618 | -75.48672 | 34743 ft | 442 kts | 40° |
| 2026-05-09 06:06 | 25.68345 | -75.44304 | 34741 ft | 442 kts | 40° |
| 2026-05-09 06:06 | 25.73068 | -75.39935 | 34744 ft | 442 kts | 40° |
| 2026-05-09 06:07 | 25.77791 | -75.35562 | 34744 ft | 442 kts | 40° |
| 2026-05-09 06:07 | 25.82537 | -75.31163 | 34744 ft | 442 kts | 40° |
| 2026-05-09 06:08 | 25.87254 | -75.26785 | 34743 ft | 442 kts | 40° |
| 2026-05-09 06:08 | 25.91980 | -75.22394 | 34743 ft | 442 kts | 40° |
| 2026-05-09 06:09 | 25.96701 | -75.18004 | 34740 ft | 442 kts | 40° |
| 2026-05-09 06:09 | 26.01434 | -75.13597 | 34745 ft | 442 kts | 40° |
| 2026-05-09 06:10 | 26.06162 | -75.09191 | 34745 ft | 442 kts | 40° |
| 2026-05-09 06:10 | 26.10878 | -75.04790 | 34744 ft | 442 kts | 40° |
| 2026-05-09 06:11 | 26.15596 | -75.00383 | 34741 ft | 442 kts | 40° |
| 2026-05-09 06:11 | 26.20304 | -74.95981 | 34743 ft | 442 kts | 40° |
| 2026-05-09 06:12 | 26.25038 | -74.91550 | 34742 ft | 442 kts | 40° |
| 2026-05-09 06:12 | 26.29746 | -74.87137 | 34743 ft | 442 kts | 40° |
| 2026-05-09 06:13 | 26.34453 | -74.82722 | 34745 ft | 442 kts | 40° |
| 2026-05-09 06:13 | 26.39163 | -74.78298 | 34742 ft | 442 kts | 40° |
| 2026-05-09 06:14 | 26.43882 | -74.73860 | 34741 ft | 442 kts | 40° |
| 2026-05-09 06:14 | 26.48586 | -74.69432 | 34742 ft | 442 kts | 40° |
| 2026-05-09 06:15 | 26.53294 | -74.64996 | 34746 ft | 442 kts | 40° |
| 2026-05-09 06:15 | 26.57965 | -74.60589 | 34740 ft | 442 kts | 40° |
| 2026-05-09 06:16 | 26.62663 | -74.56152 | 34744 ft | 442 kts | 40° |
| 2026-05-09 06:16 | 26.67362 | -74.51709 | 34745 ft | 442 kts | 40° |
| 2026-05-09 06:17 | 26.72093 | -74.47231 | 34743 ft | 442 kts | 40° |
| 2026-05-09 06:17 | 26.76759 | -74.42809 | 34746 ft | 442 kts | 40° |
| 2026-05-09 06:18 | 26.81462 | -74.38347 | 34743 ft | 442 kts | 40° |
| 2026-05-09 06:18 | 26.86154 | -74.33889 | 34746 ft | 442 kts | 40° |
| 2026-05-09 06:19 | 26.90858 | -74.29404 | 34742 ft | 442 kts | 41° |
| 2026-05-09 06:19 | 26.95411 | -74.24758 | 34745 ft | 442 kts | 42° |
| 2026-05-09 06:20 | 26.99944 | -74.20075 | 34742 ft | 442 kts | 42° |
| 2026-05-09 06:20 | 27.04474 | -74.15389 | 34744 ft | 442 kts | 42° |
| 2026-05-09 06:21 | 27.08999 | -74.10706 | 34742 ft | 442 kts | 42° |
| 2026-05-09 06:21 | 27.13525 | -74.06018 | 34745 ft | 442 kts | 42° |
| 2026-05-09 06:22 | 27.18047 | -74.01328 | 34745 ft | 442 kts | 42° |
| 2026-05-09 06:22 | 27.22575 | -73.96628 | 34744 ft | 442 kts | 42° |
| 2026-05-09 06:23 | 27.27095 | -73.91930 | 34746 ft | 442 kts | 42° |
| 2026-05-09 06:23 | 27.31612 | -73.87230 | 34743 ft | 442 kts | 42° |
| 2026-05-09 06:24 | 27.36133 | -73.82519 | 34745 ft | 442 kts | 43° |
| 2026-05-09 06:24 | 27.40650 | -73.77808 | 34741 ft | 442 kts | 43° |
| 2026-05-09 06:25 | 27.45180 | -73.73077 | 34745 ft | 442 kts | 43° |
| 2026-05-09 06:25 | 27.49694 | -73.68358 | 34743 ft | 442 kts | 43° |
| 2026-05-09 06:26 | 27.54207 | -73.63635 | 34746 ft | 442 kts | 43° |
| 2026-05-09 06:26 | 27.58683 | -73.58945 | 34743 ft | 442 kts | 43° |
| 2026-05-09 06:27 | 27.63191 | -73.54214 | 34745 ft | 442 kts | 43° |
| 2026-05-09 06:27 | 27.67704 | -73.49474 | 34744 ft | 442 kts | 43° |
| 2026-05-09 06:28 | 27.72219 | -73.44726 | 34741 ft | 442 kts | 43° |
| 2026-05-09 06:28 | 27.76725 | -73.39982 | 34743 ft | 442 kts | 43° |
| 2026-05-09 06:29 | 27.81242 | -73.35220 | 34741 ft | 442 kts | 43° |
| 2026-05-09 06:29 | 27.85746 | -73.30467 | 34744 ft | 442 kts | 43° |
| 2026-05-09 06:30 | 27.90258 | -73.25699 | 34745 ft | 442 kts | 43° |
| 2026-05-09 06:30 | 27.94749 | -73.20948 | 34740 ft | 442 kts | 43° |
| 2026-05-09 06:31 | 27.99251 | -73.16179 | 34742 ft | 442 kts | 43° |
| 2026-05-09 06:31 | 28.03749 | -73.11409 | 34745 ft | 442 kts | 43° |
| 2026-05-09 06:32 | 28.08244 | -73.06636 | 34743 ft | 442 kts | 43° |
| 2026-05-09 06:33 | 28.14976 | -72.99478 | 34745 ft | 442 kts | 43° |
| 2026-05-09 06:33 | 28.19481 | -72.94681 | 34743 ft | 443 kts | 43° |
| 2026-05-09 06:34 | 28.26213 | -72.87501 | 34745 ft | 443 kts | 43° |
| 2026-05-09 06:34 | 28.30702 | -72.82705 | 34743 ft | 443 kts | 43° |
| 2026-05-09 06:35 | 28.35183 | -72.77914 | 34742 ft | 443 kts | 43° |
| 2026-05-09 06:35 | 28.39667 | -72.73112 | 34744 ft | 443 kts | 43° |
| 2026-05-09 06:36 | 28.44151 | -72.68304 | 34745 ft | 443 kts | 43° |
| 2026-05-09 06:36 | 28.48631 | -72.63496 | 34742 ft | 443 kts | 43° |
| 2026-05-09 06:37 | 28.53120 | -72.58671 | 34741 ft | 443 kts | 43° |
| 2026-05-09 06:37 | 28.57594 | -72.53857 | 34745 ft | 443 kts | 43° |
| 2026-05-09 06:38 | 28.62072 | -72.49033 | 34745 ft | 443 kts | 43° |
| 2026-05-09 06:38 | 28.66538 | -72.44215 | 34742 ft | 443 kts | 43° |
| 2026-05-09 06:39 | 28.71014 | -72.39381 | 34743 ft | 443 kts | 43° |
| 2026-05-09 06:39 | 28.75483 | -72.34549 | 34742 ft | 443 kts | 43° |
| 2026-05-09 06:40 | 28.79919 | -72.29746 | 34742 ft | 443 kts | 43° |
| 2026-05-09 06:40 | 28.84384 | -72.24906 | 34745 ft | 443 kts | 43° |
| 2026-05-09 06:41 | 28.88855 | -72.20053 | 34745 ft | 443 kts | 43° |
| 2026-05-09 06:41 | 28.93347 | -72.15170 | 34745 ft | 443 kts | 43° |
| 2026-05-09 06:42 | 28.97777 | -72.10350 | 34744 ft | 443 kts | 43° |
| 2026-05-09 06:42 | 29.02245 | -72.05482 | 34745 ft | 443 kts | 43° |
| 2026-05-09 06:43 | 29.06715 | -72.00606 | 34745 ft | 443 kts | 43° |
| 2026-05-09 06:43 | 29.11174 | -71.95736 | 34742 ft | 443 kts | 43° |
| 2026-05-09 06:44 | 29.15631 | -71.90862 | 34746 ft | 443 kts | 43° |
| 2026-05-09 06:44 | 29.20096 | -71.85972 | 34745 ft | 443 kts | 43° |
| 2026-05-09 06:45 | 29.24549 | -71.81090 | 34742 ft | 443 kts | 43° |
| 2026-05-09 06:45 | 29.28992 | -71.76213 | 34745 ft | 443 kts | 43° |
| 2026-05-09 06:46 | 29.33444 | -71.71319 | 34742 ft | 443 kts | 43° |
| 2026-05-09 06:46 | 29.37888 | -71.66428 | 34740 ft | 443 kts | 43° |
| 2026-05-09 06:47 | 29.42336 | -71.61527 | 34744 ft | 443 kts | 43° |
| 2026-05-09 06:47 | 29.46775 | -71.56629 | 34743 ft | 443 kts | 43° |
| 2026-05-09 06:48 | 29.51222 | -71.51715 | 34744 ft | 443 kts | 43° |
| 2026-05-09 06:48 | 29.55660 | -71.46805 | 34740 ft | 443 kts | 43° |
| 2026-05-09 06:49 | 29.59346 | -71.42724 | 34741 ft | 443 kts | 44° |
| 2026-05-09 06:49 | 29.63797 | -71.37788 | 34742 ft | 443 kts | 44° |
| 2026-05-09 06:50 | 29.68231 | -71.32866 | 34745 ft | 443 kts | 44° |
| 2026-05-09 06:50 | 29.72662 | -71.27939 | 34744 ft | 443 kts | 44° |
| 2026-05-09 06:51 | 29.77095 | -71.23005 | 34745 ft | 443 kts | 44° |
| 2026-05-09 06:51 | 29.81525 | -71.18066 | 34742 ft | 443 kts | 44° |
| 2026-05-09 06:52 | 29.85955 | -71.13123 | 34743 ft | 443 kts | 44° |
| 2026-05-09 06:52 | 29.90375 | -71.08184 | 34746 ft | 443 kts | 44° |
| 2026-05-09 06:53 | 29.94800 | -71.03232 | 34746 ft | 443 kts | 44° |
| 2026-05-09 06:53 | 29.99236 | -70.98261 | 34745 ft | 443 kts | 44° |
| 2026-05-09 06:54 | 30.03663 | -70.93295 | 34740 ft | 443 kts | 44° |
| 2026-05-09 06:54 | 30.08079 | -70.88335 | 34745 ft | 443 kts | 44° |
| 2026-05-09 06:55 | 30.12464 | -70.83402 | 34745 ft | 443 kts | 44° |
| 2026-05-09 06:55 | 30.16932 | -70.78369 | 34745 ft | 443 kts | 44° |
| 2026-05-09 06:56 | 30.21360 | -70.73375 | 34743 ft | 443 kts | 44° |
| 2026-05-09 06:56 | 30.25771 | -70.68394 | 34743 ft | 443 kts | 44° |
| 2026-05-09 06:57 | 30.30179 | -70.63409 | 34742 ft | 443 kts | 44° |
| 2026-05-09 06:57 | 30.34588 | -70.58417 | 34742 ft | 443 kts | 44° |
| 2026-05-09 06:58 | 30.39042 | -70.53367 | 34745 ft | 443 kts | 44° |
| 2026-05-09 06:58 | 30.43442 | -70.48370 | 34746 ft | 443 kts | 44° |
| 2026-05-09 06:59 | 30.47849 | -70.43360 | 34739 ft | 443 kts | 44° |
| 2026-05-09 06:59 | 30.52250 | -70.38351 | 34743 ft | 443 kts | 44° |
| 2026-05-09 07:00 | 30.56647 | -70.33338 | 34745 ft | 443 kts | 44° |
| 2026-05-09 07:00 | 30.61044 | -70.28319 | 34743 ft | 443 kts | 44° |
| 2026-05-09 07:01 | 30.65440 | -70.23295 | 34743 ft | 443 kts | 44° |
| 2026-05-09 07:01 | 30.69832 | -70.18268 | 34743 ft | 443 kts | 44° |
| 2026-05-09 07:02 | 30.74224 | -70.13234 | 34742 ft | 443 kts | 44° |
| 2026-05-09 07:02 | 30.78609 | -70.08202 | 34742 ft | 443 kts | 44° |
| 2026-05-09 07:03 | 30.83000 | -70.03154 | 34744 ft | 443 kts | 44° |
| 2026-05-09 07:03 | 30.87395 | -69.98097 | 34742 ft | 443 kts | 44° |
| 2026-05-09 07:04 | 30.91784 | -69.93040 | 34745 ft | 443 kts | 44° |
| 2026-05-09 07:04 | 30.96165 | -69.87984 | 34744 ft | 443 kts | 44° |
| 2026-05-09 07:05 | 31.00551 | -69.82916 | 34745 ft | 443 kts | 44° |
| 2026-05-09 07:05 | 31.04897 | -69.77888 | 34743 ft | 443 kts | 44° |
| 2026-05-09 07:06 | 31.09294 | -69.72792 | 34745 ft | 443 kts | 44° |
| 2026-05-09 07:06 | 31.13663 | -69.67724 | 34745 ft | 443 kts | 44° |
| 2026-05-09 07:07 | 31.18040 | -69.62638 | 34742 ft | 443 kts | 44° |
| 2026-05-09 07:07 | 31.22405 | -69.57559 | 34744 ft | 443 kts | 44° |
| 2026-05-09 07:08 | 31.26775 | -69.52468 | 34744 ft | 443 kts | 44° |
| 2026-05-09 07:08 | 31.31156 | -69.47357 | 34745 ft | 443 kts | 44° |
| 2026-05-09 07:09 | 31.35518 | -69.42260 | 34745 ft | 443 kts | 44° |
| 2026-05-09 07:09 | 31.39885 | -69.37151 | 34745 ft | 443 kts | 44° |
| 2026-05-09 07:10 | 31.44255 | -69.32031 | 34745 ft | 443 kts | 44° |
| 2026-05-09 07:10 | 31.48616 | -69.26914 | 34745 ft | 443 kts | 44° |
| 2026-05-09 07:11 | 31.52970 | -69.21799 | 34743 ft | 443 kts | 44° |
| 2026-05-09 07:11 | 31.57325 | -69.16676 | 34742 ft | 443 kts | 45° |
| 2026-05-09 07:12 | 31.61688 | -69.11535 | 34742 ft | 443 kts | 45° |
| 2026-05-09 07:12 | 31.66042 | -69.06398 | 34742 ft | 443 kts | 45° |
| 2026-05-09 07:13 | 31.70363 | -69.01293 | 34746 ft | 443 kts | 45° |
| 2026-05-09 07:13 | 31.74749 | -68.96103 | 34743 ft | 443 kts | 45° |
| 2026-05-09 07:14 | 31.79113 | -68.90933 | 34745 ft | 443 kts | 45° |
| 2026-05-09 07:14 | 31.83454 | -68.85781 | 34743 ft | 443 kts | 45° |
| 2026-05-09 07:15 | 31.87767 | -68.80657 | 34742 ft | 443 kts | 45° |
| 2026-05-09 07:15 | 31.92129 | -68.75466 | 34742 ft | 443 kts | 45° |
| 2026-05-09 07:16 | 31.96471 | -68.70293 | 34745 ft | 443 kts | 45° |
| 2026-05-09 07:16 | 32.00776 | -68.65156 | 34742 ft | 443 kts | 45° |
| 2026-05-09 07:17 | 32.05104 | -68.59982 | 34745 ft | 443 kts | 45° |
| 2026-05-09 07:17 | 32.09438 | -68.54796 | 34746 ft | 443 kts | 45° |
| 2026-05-09 07:18 | 32.13779 | -68.49593 | 34745 ft | 443 kts | 45° |
| 2026-05-09 07:18 | 32.18105 | -68.44401 | 34742 ft | 443 kts | 45° |
| 2026-05-09 07:19 | 32.22431 | -68.39200 | 34742 ft | 443 kts | 45° |
| 2026-05-09 07:19 | 32.26753 | -68.33997 | 34745 ft | 443 kts | 45° |
| 2026-05-09 07:20 | 32.31085 | -68.28773 | 34743 ft | 443 kts | 45° |
| 2026-05-09 07:20 | 32.35403 | -68.23559 | 34745 ft | 443 kts | 45° |
| 2026-05-09 07:21 | 32.39786 | -68.18431 | 34744 ft | 443 kts | 44° |
| 2026-05-09 07:21 | 32.44211 | -68.13331 | 34745 ft | 443 kts | 44° |
| 2026-05-09 07:22 | 32.48623 | -68.08227 | 34745 ft | 443 kts | 44° |
| 2026-05-09 07:22 | 32.53028 | -68.03116 | 34743 ft | 443 kts | 44° |
| 2026-05-09 07:23 | 32.57440 | -67.97985 | 34743 ft | 443 kts | 44° |
| 2026-05-09 07:23 | 32.61841 | -67.92859 | 34746 ft | 443 kts | 44° |
| 2026-05-09 07:24 | 32.66273 | -67.87688 | 34744 ft | 443 kts | 44° |
| 2026-05-09 07:24 | 32.70677 | -67.82543 | 34745 ft | 443 kts | 44° |
| 2026-05-09 07:25 | 32.75097 | -67.77370 | 34742 ft | 443 kts | 44° |
| 2026-05-09 07:25 | 32.79491 | -67.72220 | 34744 ft | 443 kts | 44° |
| 2026-05-09 07:26 | 32.83879 | -67.67070 | 34744 ft | 443 kts | 44° |
| 2026-05-09 07:26 | 32.88257 | -67.61924 | 34741 ft | 443 kts | 44° |
| 2026-05-09 07:27 | 32.92645 | -67.56760 | 34744 ft | 443 kts | 44° |
| 2026-05-09 07:27 | 32.97032 | -67.51588 | 34742 ft | 443 kts | 44° |
| 2026-05-09 07:28 | 33.01435 | -67.46390 | 34744 ft | 443 kts | 44° |
| 2026-05-09 07:28 | 33.05546 | -67.41529 | 34745 ft | 443 kts | 44° |
| 2026-05-09 07:29 | 33.09941 | -67.36326 | 34740 ft | 443 kts | 44° |
| 2026-05-09 07:29 | 33.14316 | -67.31137 | 34742 ft | 443 kts | 44° |
| 2026-05-09 07:30 | 33.18709 | -67.25921 | 34741 ft | 443 kts | 44° |
| 2026-05-09 07:30 | 33.23082 | -67.20720 | 34745 ft | 443 kts | 44° |
| 2026-05-09 07:31 | 33.27473 | -67.15489 | 34742 ft | 443 kts | 44° |
| 2026-05-09 07:31 | 33.31853 | -67.10264 | 34744 ft | 443 kts | 44° |
| 2026-05-09 07:32 | 33.36234 | -67.05031 | 34744 ft | 443 kts | 44° |
| 2026-05-09 07:32 | 33.40609 | -66.99796 | 34742 ft | 443 kts | 44° |
| 2026-05-09 07:33 | 33.47170 | -66.91931 | 34742 ft | 443 kts | 44° |
| 2026-05-09 07:34 | 33.51496 | -66.86736 | 34744 ft | 443 kts | 44° |
| 2026-05-09 07:34 | 33.55880 | -66.81461 | 34744 ft | 443 kts | 45° |
| 2026-05-09 07:35 | 33.60243 | -66.76206 | 34742 ft | 443 kts | 45° |
| 2026-05-09 07:35 | 33.64561 | -66.70996 | 34742 ft | 443 kts | 45° |
| 2026-05-09 07:36 | 33.68914 | -66.65737 | 34742 ft | 443 kts | 45° |
| 2026-05-09 07:36 | 33.73267 | -66.60469 | 34742 ft | 443 kts | 45° |
| 2026-05-09 07:37 | 33.77609 | -66.55206 | 34746 ft | 443 kts | 45° |
| 2026-05-09 07:37 | 33.81968 | -66.49915 | 34742 ft | 443 kts | 45° |
| 2026-05-09 07:38 | 33.86313 | -66.44632 | 34740 ft | 443 kts | 45° |
| 2026-05-09 07:38 | 33.90651 | -66.39350 | 34742 ft | 443 kts | 45° |
| 2026-05-09 07:39 | 33.94300 | -66.34901 | 34745 ft | 443 kts | 45° |
| 2026-05-09 07:39 | 33.98638 | -66.29603 | 34744 ft | 443 kts | 45° |
| 2026-05-09 07:40 | 34.02968 | -66.24308 | 34745 ft | 443 kts | 45° |
| 2026-05-09 07:40 | 34.07318 | -66.18980 | 34745 ft | 443 kts | 45° |
| 2026-05-09 07:41 | 34.11618 | -66.13704 | 34742 ft | 443 kts | 45° |
| 2026-05-09 07:41 | 34.15952 | -66.08380 | 34742 ft | 444 kts | 45° |
| 2026-05-09 07:42 | 34.20296 | -66.03035 | 34744 ft | 444 kts | 45° |
| 2026-05-09 07:42 | 34.24616 | -65.97710 | 34740 ft | 444 kts | 45° |
| 2026-05-09 07:43 | 34.28938 | -65.92375 | 34745 ft | 444 kts | 45° |
| 2026-05-09 07:43 | 34.33256 | -65.87037 | 34744 ft | 444 kts | 45° |
| 2026-05-09 07:44 | 34.37572 | -65.81692 | 34743 ft | 444 kts | 45° |
| 2026-05-09 07:44 | 34.41889 | -65.76337 | 34742 ft | 444 kts | 45° |
| 2026-05-09 07:45 | 34.46220 | -65.70958 | 34746 ft | 444 kts | 45° |
| 2026-05-09 07:45 | 34.50529 | -65.65597 | 34745 ft | 444 kts | 45° |
| 2026-05-09 07:46 | 34.54849 | -65.60213 | 34741 ft | 444 kts | 45° |
| 2026-05-09 07:46 | 34.59156 | -65.54838 | 34743 ft | 444 kts | 45° |
| 2026-05-09 07:47 | 34.63429 | -65.49496 | 34740 ft | 444 kts | 45° |
| 2026-05-09 07:47 | 34.67725 | -65.44117 | 34746 ft | 444 kts | 45° |
| 2026-05-09 07:48 | 34.72022 | -65.38729 | 34742 ft | 444 kts | 45° |
| 2026-05-09 07:48 | 34.76320 | -65.33331 | 34744 ft | 444 kts | 45° |
| 2026-05-09 07:49 | 34.80632 | -65.27906 | 34745 ft | 444 kts | 45° |
| 2026-05-09 07:49 | 34.84923 | -65.22499 | 34743 ft | 444 kts | 45° |
| 2026-05-09 07:50 | 34.89220 | -65.17075 | 34745 ft | 444 kts | 45° |
| 2026-05-09 07:50 | 34.93512 | -65.11650 | 34742 ft | 444 kts | 45° |
| 2026-05-09 07:51 | 34.97794 | -65.06229 | 34742 ft | 444 kts | 45° |
| 2026-05-09 07:51 | 35.02115 | -65.00748 | 34739 ft | 444 kts | 45° |
| 2026-05-09 07:52 | 35.06397 | -64.95309 | 34744 ft | 444 kts | 45° |
| 2026-05-09 07:52 | 35.10675 | -64.89866 | 34744 ft | 444 kts | 45° |
| 2026-05-09 07:53 | 35.14948 | -64.84421 | 34746 ft | 444 kts | 45° |
| 2026-05-09 07:53 | 35.19225 | -64.78962 | 34745 ft | 444 kts | 45° |
| 2026-05-09 07:54 | 35.23494 | -64.73503 | 34744 ft | 444 kts | 46° |
| 2026-05-09 07:54 | 35.27764 | -64.68035 | 34742 ft | 444 kts | 46° |
| 2026-05-09 07:55 | 35.32029 | -64.62565 | 34744 ft | 444 kts | 46° |
| 2026-05-09 07:55 | 35.36301 | -64.57076 | 34744 ft | 444 kts | 46° |
| 2026-05-09 07:56 | 35.40561 | -64.51595 | 34742 ft | 444 kts | 46° |
| 2026-05-09 07:56 | 35.44791 | -64.46142 | 34744 ft | 444 kts | 46° |
| 2026-05-09 07:57 | 35.49079 | -64.40606 | 34743 ft | 444 kts | 46° |
| 2026-05-09 07:57 | 35.53333 | -64.35104 | 34745 ft | 444 kts | 46° |
| 2026-05-09 07:58 | 35.57583 | -64.29598 | 34742 ft | 444 kts | 46° |
| 2026-05-09 07:58 | 35.61844 | -64.24069 | 34745 ft | 444 kts | 46° |
| 2026-05-09 07:59 | 35.66104 | -64.18533 | 34743 ft | 444 kts | 46° |
| 2026-05-09 07:59 | 35.70365 | -64.12986 | 34742 ft | 444 kts | 46° |
| 2026-05-09 08:00 | 35.74650 | -64.07398 | 34744 ft | 444 kts | 46° |
| 2026-05-09 08:00 | 35.78918 | -64.01823 | 34745 ft | 444 kts | 46° |
| 2026-05-09 08:01 | 35.83153 | -63.96282 | 34745 ft | 444 kts | 46° |
| 2026-05-09 08:01 | 35.87396 | -63.90722 | 34742 ft | 444 kts | 46° |
| 2026-05-09 08:02 | 35.91639 | -63.85151 | 34744 ft | 444 kts | 46° |
| 2026-05-09 08:02 | 35.95882 | -63.79572 | 34742 ft | 444 kts | 46° |
| 2026-05-09 08:03 | 36.00158 | -63.73939 | 34746 ft | 444 kts | 46° |
| 2026-05-09 08:03 | 36.04389 | -63.68358 | 34744 ft | 444 kts | 46° |
| 2026-05-09 08:04 | 36.08624 | -63.62760 | 34742 ft | 444 kts | 46° |
| 2026-05-09 08:04 | 36.12856 | -63.57157 | 34745 ft | 444 kts | 46° |
| 2026-05-09 08:05 | 36.17086 | -63.51547 | 34742 ft | 444 kts | 46° |
| 2026-05-09 08:05 | 36.21326 | -63.45915 | 34745 ft | 444 kts | 46° |
| 2026-05-09 08:06 | 36.25538 | -63.40310 | 34742 ft | 444 kts | 46° |
| 2026-05-09 08:06 | 36.29789 | -63.34643 | 34745 ft | 444 kts | 46° |
| 2026-05-09 08:07 | 36.33967 | -63.29065 | 34743 ft | 444 kts | 46° |
| 2026-05-09 08:07 | 36.38221 | -63.23375 | 34745 ft | 444 kts | 46° |
| 2026-05-09 08:08 | 36.42431 | -63.17735 | 34743 ft | 444 kts | 46° |
| 2026-05-09 08:08 | 36.46668 | -63.12047 | 34742 ft | 444 kts | 46° |
| 2026-05-09 08:09 | 36.50879 | -63.06387 | 34744 ft | 444 kts | 46° |
| 2026-05-09 08:09 | 36.55073 | -63.00739 | 34745 ft | 444 kts | 46° |
| 2026-05-09 08:10 | 36.59293 | -62.95044 | 34742 ft | 444 kts | 46° |
| 2026-05-09 08:10 | 36.63491 | -62.89372 | 34745 ft | 444 kts | 46° |
| 2026-05-09 08:11 | 36.67678 | -62.83704 | 34744 ft | 444 kts | 46° |
| 2026-05-09 08:11 | 36.71872 | -62.78016 | 34743 ft | 444 kts | 47° |
| 2026-05-09 08:12 | 36.78151 | -62.69483 | 34746 ft | 444 kts | 47° |
| 2026-05-09 08:12 | 36.82348 | -62.63766 | 34745 ft | 444 kts | 47° |
| 2026-05-09 08:13 | 36.86561 | -62.58017 | 34745 ft | 444 kts | 47° |
| 2026-05-09 08:13 | 36.90748 | -62.52295 | 34742 ft | 444 kts | 47° |
| 2026-05-09 08:14 | 36.94927 | -62.46573 | 34744 ft | 444 kts | 47° |
| 2026-05-09 08:14 | 36.99108 | -62.40839 | 34743 ft | 444 kts | 47° |
| 2026-05-09 08:15 | 37.03324 | -62.35045 | 34740 ft | 444 kts | 47° |
| 2026-05-09 08:15 | 37.07521 | -62.29267 | 34745 ft | 444 kts | 47° |
| 2026-05-09 08:16 | 37.11695 | -62.23513 | 34745 ft | 444 kts | 47° |
| 2026-05-09 08:16 | 37.15869 | -62.17747 | 34743 ft | 444 kts | 47° |
| 2026-05-09 08:17 | 37.20037 | -62.11979 | 34739 ft | 444 kts | 47° |
| 2026-05-09 08:17 | 37.24200 | -62.06207 | 34742 ft | 444 kts | 47° |
| 2026-05-09 08:18 | 37.28374 | -62.00412 | 34743 ft | 444 kts | 47° |
| 2026-05-09 08:18 | 37.32524 | -61.94638 | 34744 ft | 444 kts | 47° |
| 2026-05-09 08:19 | 37.36716 | -61.88795 | 34744 ft | 444 kts | 47° |
| 2026-05-09 08:19 | 37.40883 | -61.82977 | 34743 ft | 444 kts | 47° |
| 2026-05-09 08:20 | 37.45071 | -61.77120 | 34740 ft | 444 kts | 47° |
| 2026-05-09 08:20 | 37.49235 | -61.71284 | 34742 ft | 444 kts | 47° |
| 2026-05-09 08:21 | 37.53400 | -61.65437 | 34744 ft | 444 kts | 47° |
| 2026-05-09 08:21 | 37.57589 | -61.59546 | 34745 ft | 444 kts | 47° |
| 2026-05-09 08:22 | 37.61782 | -61.53637 | 34745 ft | 444 kts | 47° |
| 2026-05-09 08:22 | 37.65968 | -61.47729 | 34744 ft | 444 kts | 47° |
| 2026-05-09 08:23 | 37.70090 | -61.41900 | 34746 ft | 444 kts | 47° |
| 2026-05-09 08:23 | 37.74412 | -61.35777 | 34743 ft | 444 kts | 47° |
| 2026-05-09 08:24 | 37.78788 | -61.29566 | 34745 ft | 444 kts | 47° |
| 2026-05-09 08:24 | 37.82406 | -61.24420 | 34742 ft | 444 kts | 47° |
| 2026-05-09 08:25 | 37.86790 | -61.18175 | 34742 ft | 444 kts | 47° |
| 2026-05-09 08:25 | 37.91105 | -61.12016 | 34742 ft | 444 kts | 47° |
| 2026-05-09 08:26 | 37.95451 | -61.05803 | 34742 ft | 444 kts | 47° |
| 2026-05-09 08:26 | 37.99857 | -60.99489 | 34742 ft | 444 kts | 47° |
| 2026-05-09 08:27 | 38.04152 | -60.93323 | 34744 ft | 444 kts | 48° |
| 2026-05-09 08:27 | 38.08376 | -60.87248 | 34744 ft | 444 kts | 48° |
| 2026-05-09 08:28 | 38.12576 | -60.81196 | 34744 ft | 444 kts | 48° |
| 2026-05-09 08:28 | 38.16675 | -60.75276 | 34743 ft | 444 kts | 48° |
| 2026-05-09 08:29 | 38.20758 | -60.69371 | 34742 ft | 444 kts | 48° |
| 2026-05-09 08:29 | 38.24839 | -60.63457 | 34745 ft | 444 kts | 48° |
| 2026-05-09 08:30 | 38.29059 | -60.57329 | 34744 ft | 444 kts | 48° |
| 2026-05-09 08:30 | 38.33284 | -60.51182 | 34745 ft | 444 kts | 48° |
| 2026-05-09 08:31 | 38.37355 | -60.45246 | 34745 ft | 444 kts | 48° |
| 2026-05-09 08:31 | 38.41423 | -60.39303 | 34742 ft | 444 kts | 48° |
| 2026-05-09 08:32 | 38.45544 | -60.33253 | 34742 ft | 444 kts | 49° |
| 2026-05-09 08:33 | 38.51252 | -60.23149 | 34742 ft | 446 kts | 57° |
| 2026-05-09 08:33 | 38.54356 | -60.15968 | 34745 ft | 447 kts | 60° |
| 2026-05-09 08:34 | 38.57351 | -60.08532 | 34745 ft | 447 kts | 61° |
| 2026-05-09 08:34 | 38.60347 | -60.01062 | 34741 ft | 447 kts | 61° |
| 2026-05-09 08:35 | 38.63281 | -59.93734 | 34742 ft | 447 kts | 61° |
| 2026-05-09 08:35 | 38.66256 | -59.86289 | 34744 ft | 447 kts | 61° |
| 2026-05-09 08:36 | 38.69195 | -59.78916 | 34744 ft | 447 kts | 61° |
| 2026-05-09 08:36 | 38.72131 | -59.71534 | 34742 ft | 447 kts | 61° |
| 2026-05-09 08:37 | 38.75055 | -59.64167 | 34742 ft | 447 kts | 61° |
| 2026-05-09 08:37 | 38.77970 | -59.56804 | 34742 ft | 447 kts | 61° |
| 2026-05-09 08:38 | 38.80781 | -59.49686 | 34745 ft | 447 kts | 61° |
| 2026-05-09 08:38 | 38.83658 | -59.42384 | 34740 ft | 447 kts | 61° |
| 2026-05-09 08:39 | 38.86496 | -59.35163 | 34741 ft | 447 kts | 61° |
| 2026-05-09 08:39 | 38.89297 | -59.28021 | 34742 ft | 447 kts | 61° |
| 2026-05-09 08:40 | 38.92090 | -59.20882 | 34742 ft | 447 kts | 61° |
| 2026-05-09 08:40 | 38.94888 | -59.13716 | 34742 ft | 447 kts | 61° |
| 2026-05-09 08:41 | 38.97695 | -59.06507 | 34745 ft | 447 kts | 61° |
| 2026-05-09 08:41 | 39.00481 | -58.99334 | 34744 ft | 447 kts | 62° |
| 2026-05-09 08:42 | 39.03320 | -58.92009 | 34744 ft | 447 kts | 62° |
| 2026-05-09 08:42 | 39.06107 | -58.84800 | 34741 ft | 447 kts | 62° |
| 2026-05-09 08:43 | 39.08927 | -58.77489 | 34741 ft | 447 kts | 62° |
| 2026-05-09 08:43 | 39.11719 | -58.70233 | 34741 ft | 447 kts | 62° |
| 2026-05-09 08:44 | 39.14485 | -58.63026 | 34743 ft | 447 kts | 62° |
| 2026-05-09 08:44 | 39.17268 | -58.55760 | 34743 ft | 447 kts | 62° |
| 2026-05-09 08:45 | 39.20017 | -58.48563 | 34744 ft | 447 kts | 62° |
| 2026-05-09 08:45 | 39.22772 | -58.41333 | 34745 ft | 447 kts | 62° |
| 2026-05-09 08:46 | 39.25536 | -58.34062 | 34744 ft | 447 kts | 62° |
| 2026-05-09 08:46 | 39.28288 | -58.26806 | 34742 ft | 447 kts | 62° |
| 2026-05-09 08:47 | 39.31017 | -58.19593 | 34742 ft | 447 kts | 62° |
| 2026-05-09 08:47 | 39.33800 | -58.12220 | 34743 ft | 447 kts | 62° |
| 2026-05-09 08:48 | 39.36539 | -58.04943 | 34744 ft | 447 kts | 62° |
| 2026-05-09 08:48 | 39.39256 | -57.97707 | 34746 ft | 447 kts | 62° |
| 2026-05-09 08:49 | 39.41997 | -57.90387 | 34745 ft | 447 kts | 62° |
| 2026-05-09 08:49 | 39.44708 | -57.83129 | 34744 ft | 447 kts | 62° |
| 2026-05-09 08:50 | 39.47431 | -57.75824 | 34745 ft | 447 kts | 62° |
| 2026-05-09 08:50 | 39.50129 | -57.68571 | 34744 ft | 447 kts | 62° |
| 2026-05-09 08:51 | 39.52817 | -57.61324 | 34745 ft | 447 kts | 62° |
| 2026-05-09 08:51 | 39.55511 | -57.54045 | 34744 ft | 447 kts | 62° |
| 2026-05-09 08:52 | 39.58198 | -57.46766 | 34744 ft | 447 kts | 62° |
| 2026-05-09 08:52 | 39.60879 | -57.39486 | 34745 ft | 447 kts | 62° |
| 2026-05-09 08:53 | 39.63561 | -57.32186 | 34742 ft | 447 kts | 62° |
| 2026-05-09 08:53 | 39.66237 | -57.24885 | 34744 ft | 447 kts | 62° |
| 2026-05-09 08:54 | 39.68924 | -57.17533 | 34746 ft | 447 kts | 63° |
| 2026-05-09 08:54 | 39.71588 | -57.10226 | 34742 ft | 447 kts | 63° |
| 2026-05-09 08:55 | 39.74274 | -57.02843 | 34742 ft | 447 kts | 63° |
| 2026-05-09 08:55 | 39.76953 | -56.95457 | 34743 ft | 447 kts | 63° |
| 2026-05-09 08:56 | 39.79605 | -56.88131 | 34742 ft | 447 kts | 63° |
| 2026-05-09 08:56 | 39.82252 | -56.80797 | 34745 ft | 447 kts | 63° |
| 2026-05-09 08:57 | 39.84893 | -56.73462 | 34744 ft | 447 kts | 63° |
| 2026-05-09 08:57 | 39.87539 | -56.66094 | 34743 ft | 447 kts | 63° |
| 2026-05-09 08:58 | 39.90203 | -56.58658 | 34745 ft | 447 kts | 63° |
| 2026-05-09 08:58 | 39.92843 | -56.51273 | 34742 ft | 447 kts | 63° |
| 2026-05-09 08:59 | 39.95468 | -56.43907 | 34745 ft | 447 kts | 63° |
| 2026-05-09 08:59 | 39.98094 | -56.36522 | 34743 ft | 447 kts | 63° |
| 2026-05-09 09:00 | 40.00724 | -56.29104 | 34743 ft | 447 kts | 63° |
| 2026-05-09 09:00 | 40.03366 | -56.21636 | 34744 ft | 447 kts | 63° |
| 2026-05-09 09:01 | 40.05954 | -56.14298 | 34745 ft | 447 kts | 63° |
| 2026-05-09 09:01 | 40.08587 | -56.06816 | 34740 ft | 447 kts | 63° |
| 2026-05-09 09:02 | 40.11186 | -55.99414 | 34744 ft | 447 kts | 63° |
| 2026-05-09 09:02 | 40.13816 | -55.91906 | 34744 ft | 447 kts | 63° |
| 2026-05-09 09:03 | 40.16391 | -55.84533 | 34740 ft | 447 kts | 63° |
| 2026-05-09 09:03 | 40.19010 | -55.77016 | 34744 ft | 447 kts | 63° |
| 2026-05-09 09:04 | 40.21591 | -55.69586 | 34742 ft | 447 kts | 63° |
| 2026-05-09 09:04 | 40.24178 | -55.62120 | 34742 ft | 448 kts | 63° |
| 2026-05-09 09:05 | 40.26757 | -55.54657 | 34740 ft | 448 kts | 63° |
| 2026-05-09 09:05 | 40.29331 | -55.47188 | 34745 ft | 448 kts | 63° |
| 2026-05-09 09:06 | 40.31890 | -55.39742 | 34745 ft | 448 kts | 64° |
| 2026-05-09 09:06 | 40.34450 | -55.32274 | 34742 ft | 448 kts | 64° |
| 2026-05-09 09:07 | 40.37015 | -55.24774 | 34743 ft | 448 kts | 64° |
| 2026-05-09 09:07 | 40.39567 | -55.17289 | 34744 ft | 448 kts | 64° |
| 2026-05-09 09:08 | 40.42117 | -55.09793 | 34744 ft | 448 kts | 64° |
| 2026-05-09 09:08 | 40.44674 | -55.02254 | 34742 ft | 448 kts | 64° |
| 2026-05-09 09:09 | 40.47210 | -54.94757 | 34744 ft | 448 kts | 64° |
| 2026-05-09 09:09 | 40.49319 | -54.88506 | 34742 ft | 448 kts | 64° |
| 2026-05-09 09:10 | 40.52272 | -54.79735 | 34745 ft | 448 kts | 64° |
| 2026-05-09 09:10 | 40.54790 | -54.72231 | 34743 ft | 448 kts | 64° |
| 2026-05-09 09:11 | 40.56882 | -54.65982 | 34743 ft | 448 kts | 64° |
| 2026-05-09 09:11 | 40.59389 | -54.58475 | 34745 ft | 448 kts | 64° |
| 2026-05-09 09:12 | 40.61900 | -54.50935 | 34745 ft | 448 kts | 64° |
| 2026-05-09 09:12 | 40.64398 | -54.43415 | 34743 ft | 448 kts | 64° |
| 2026-05-09 09:13 | 40.66900 | -54.35863 | 34745 ft | 448 kts | 64° |
| 2026-05-09 09:13 | 40.69412 | -54.28259 | 34742 ft | 448 kts | 64° |
| 2026-05-09 09:14 | 40.71894 | -54.20722 | 34743 ft | 448 kts | 64° |
| 2026-05-09 09:14 | 40.74376 | -54.13170 | 34742 ft | 448 kts | 64° |
| 2026-05-09 09:15 | 40.76864 | -54.05576 | 34743 ft | 448 kts | 64° |
| 2026-05-09 09:15 | 40.79340 | -53.97997 | 34743 ft | 448 kts | 64° |
| 2026-05-09 09:16 | 40.81803 | -53.90441 | 34744 ft | 448 kts | 64° |
| 2026-05-09 09:16 | 40.85516 | -53.79006 | 34742 ft | 448 kts | 64° |
| 2026-05-09 09:17 | 40.87976 | -53.71405 | 34741 ft | 448 kts | 65° |
| 2026-05-09 09:17 | 40.90435 | -53.63786 | 34745 ft | 448 kts | 65° |
| 2026-05-09 09:18 | 40.92879 | -53.56190 | 34744 ft | 448 kts | 65° |
| 2026-05-09 09:18 | 40.95323 | -53.48574 | 34745 ft | 448 kts | 65° |
| 2026-05-09 09:19 | 40.97764 | -53.40947 | 34745 ft | 448 kts | 65° |
| 2026-05-09 09:19 | 41.00199 | -53.33316 | 34743 ft | 448 kts | 65° |
| 2026-05-09 09:20 | 41.02628 | -53.25686 | 34742 ft | 448 kts | 65° |
| 2026-05-09 09:20 | 41.05037 | -53.18093 | 34745 ft | 448 kts | 65° |
| 2026-05-09 09:21 | 41.07448 | -53.10474 | 34743 ft | 448 kts | 65° |
| 2026-05-09 09:21 | 41.09858 | -53.02837 | 34744 ft | 448 kts | 65° |
| 2026-05-09 09:22 | 41.12274 | -52.95158 | 34744 ft | 448 kts | 65° |
| 2026-05-09 09:22 | 41.14672 | -52.87517 | 34743 ft | 448 kts | 65° |
| 2026-05-09 09:23 | 41.17066 | -52.79866 | 34742 ft | 448 kts | 65° |
| 2026-05-09 09:23 | 41.19476 | -52.72141 | 34742 ft | 448 kts | 65° |
| 2026-05-09 09:24 | 41.21865 | -52.64462 | 34743 ft | 448 kts | 65° |
| 2026-05-09 09:24 | 41.24248 | -52.56781 | 34744 ft | 448 kts | 65° |
| 2026-05-09 09:25 | 41.26635 | -52.49062 | 34743 ft | 448 kts | 65° |
| 2026-05-09 09:25 | 41.29019 | -52.41334 | 34743 ft | 448 kts | 65° |
| 2026-05-09 09:26 | 41.31389 | -52.33628 | 34743 ft | 448 kts | 65° |
| 2026-05-09 09:26 | 41.33756 | -52.25906 | 34742 ft | 448 kts | 65° |
| 2026-05-09 09:27 | 41.36109 | -52.18212 | 34740 ft | 448 kts | 65° |
| 2026-05-09 09:27 | 41.38471 | -52.10465 | 34745 ft | 448 kts | 65° |
| 2026-05-09 09:28 | 41.40811 | -52.02766 | 34744 ft | 448 kts | 65° |
| 2026-05-09 09:28 | 41.43136 | -51.95096 | 34745 ft | 448 kts | 66° |
| 2026-05-09 09:29 | 41.45479 | -51.87341 | 34743 ft | 448 kts | 66° |
| 2026-05-09 09:29 | 41.47804 | -51.79627 | 34741 ft | 448 kts | 66° |
| 2026-05-09 09:30 | 41.50132 | -51.71875 | 34742 ft | 448 kts | 66° |
| 2026-05-09 09:30 | 41.52464 | -51.64090 | 34744 ft | 448 kts | 66° |
| 2026-05-09 09:31 | 41.54780 | -51.56337 | 34743 ft | 448 kts | 66° |
| 2026-05-09 09:32 | 41.58237 | -51.44716 | 34744 ft | 448 kts | 66° |
| 2026-05-09 09:32 | 41.60536 | -51.36961 | 34745 ft | 448 kts | 66° |
| 2026-05-09 09:33 | 41.62831 | -51.29197 | 34745 ft | 448 kts | 66° |
| 2026-05-09 09:33 | 41.65120 | -51.21428 | 34743 ft | 448 kts | 66° |
| 2026-05-09 09:34 | 41.67416 | -51.13611 | 34743 ft | 448 kts | 66° |
| 2026-05-09 09:34 | 41.69701 | -51.05811 | 34744 ft | 448 kts | 66° |
| 2026-05-09 09:36 | 41.78809 | -50.74476 | 34744 ft | 449 kts | 66° |
| 2026-05-09 09:37 | 41.81066 | -50.66650 | 34744 ft | 449 kts | 66° |
| 2026-05-09 09:37 | 41.83328 | -50.58783 | 34745 ft | 449 kts | 66° |
| 2026-05-09 09:38 | 41.85587 | -50.50902 | 34744 ft | 449 kts | 66° |
| 2026-05-09 09:38 | 41.87832 | -50.43048 | 34744 ft | 449 kts | 66° |
| 2026-05-09 09:39 | 41.90068 | -50.35195 | 34744 ft | 449 kts | 66° |
| 2026-05-09 09:39 | 41.92299 | -50.27338 | 34745 ft | 449 kts | 67° |
| 2026-05-09 09:40 | 41.94527 | -50.19465 | 34742 ft | 449 kts | 67° |
| 2026-05-09 09:40 | 41.96747 | -50.11587 | 34744 ft | 449 kts | 67° |
| 2026-05-09 09:41 | 41.98958 | -50.03726 | 34744 ft | 449 kts | 66° |
| 2026-05-09 09:41 | 42.01443 | -49.96005 | 34743 ft | 447 kts | 62° |
| 2026-05-09 09:42 | 42.04151 | -49.88460 | 34744 ft | 447 kts | 62° |
| 2026-05-09 09:42 | 42.06861 | -49.80917 | 34745 ft | 447 kts | 62° |
| 2026-05-09 09:43 | 42.09566 | -49.73356 | 34745 ft | 447 kts | 62° |
| 2026-05-09 09:43 | 42.12277 | -49.65754 | 34743 ft | 447 kts | 62° |
| 2026-05-09 09:44 | 42.14972 | -49.58174 | 34740 ft | 447 kts | 62° |
| 2026-05-09 09:44 | 42.17662 | -49.50585 | 34742 ft | 447 kts | 62° |
| 2026-05-09 09:45 | 42.20351 | -49.42978 | 34742 ft | 447 kts | 62° |
| 2026-05-09 09:45 | 42.23027 | -49.35389 | 34739 ft | 447 kts | 62° |
| 2026-05-09 09:46 | 42.25678 | -49.27848 | 34746 ft | 447 kts | 63° |
| 2026-05-09 09:46 | 42.28373 | -49.20163 | 34744 ft | 447 kts | 63° |
| 2026-05-09 09:47 | 42.31033 | -49.12557 | 34744 ft | 447 kts | 63° |
| 2026-05-09 09:47 | 42.33690 | -49.04936 | 34745 ft | 447 kts | 63° |
| 2026-05-09 09:48 | 42.36359 | -48.97262 | 34746 ft | 447 kts | 63° |
| 2026-05-09 09:48 | 42.39003 | -48.89639 | 34744 ft | 447 kts | 63° |
| 2026-05-09 09:49 | 42.41646 | -48.81997 | 34744 ft | 447 kts | 63° |
| 2026-05-09 09:49 | 42.44296 | -48.74314 | 34742 ft | 447 kts | 63° |
| 2026-05-09 09:50 | 42.46929 | -48.66658 | 34742 ft | 447 kts | 63° |
| 2026-05-09 09:50 | 42.49554 | -48.59002 | 34745 ft | 447 kts | 63° |
| 2026-05-09 09:51 | 42.52173 | -48.51345 | 34744 ft | 448 kts | 63° |
| 2026-05-09 09:51 | 42.54797 | -48.43653 | 34745 ft | 448 kts | 63° |
| 2026-05-09 09:52 | 42.57415 | -48.35955 | 34742 ft | 448 kts | 63° |
| 2026-05-09 09:52 | 42.60042 | -48.28209 | 34742 ft | 448 kts | 63° |
| 2026-05-09 09:53 | 42.62642 | -48.20522 | 34742 ft | 448 kts | 63° |
| 2026-05-09 09:53 | 42.65241 | -48.12817 | 34743 ft | 448 kts | 63° |
| 2026-05-09 09:54 | 42.67399 | -48.06400 | 34745 ft | 448 kts | 63° |
| 2026-05-09 09:54 | 42.69983 | -47.98699 | 34744 ft | 448 kts | 63° |
| 2026-05-09 09:55 | 42.72578 | -47.90942 | 34744 ft | 448 kts | 63° |
| 2026-05-09 09:55 | 42.75583 | -47.81933 | 34745 ft | 448 kts | 63° |
| 2026-05-09 09:56 | 42.78187 | -47.74103 | 35051 ft | 452 kts | 63° |
| 2026-05-09 09:56 | 42.79066 | -47.71455 | 35439 ft | 448 kts | 63° |
| 2026-05-09 09:56 | 42.80342 | -47.67601 | 36010 ft | 444 kts | 63° |
| 2026-05-09 09:56 | 42.81610 | -47.63768 | 36467 ft | 442 kts | 63° |
| 2026-05-09 09:57 | 42.82875 | -47.59942 | 36730 ft | 443 kts | 64° |
| 2026-05-09 09:57 | 42.85408 | -47.52264 | 36740 ft | 444 kts | 64° |
| 2026-05-09 09:58 | 42.87945 | -47.44548 | 36744 ft | 444 kts | 64° |
| 2026-05-09 09:58 | 42.90469 | -47.36852 | 36744 ft | 444 kts | 64° |
| 2026-05-09 09:59 | 42.92990 | -47.29138 | 36744 ft | 444 kts | 64° |
| 2026-05-09 09:59 | 42.95504 | -47.21424 | 36744 ft | 444 kts | 64° |
| 2026-05-09 10:00 | 42.97991 | -47.13774 | 36744 ft | 444 kts | 64° |
| 2026-05-09 10:00 | 43.00525 | -47.05957 | 36744 ft | 444 kts | 64° |
| 2026-05-09 10:01 | 43.03012 | -46.98260 | 36744 ft | 444 kts | 64° |
| 2026-05-09 10:01 | 43.05517 | -46.90489 | 36744 ft | 444 kts | 64° |
| 2026-05-09 10:02 | 43.08019 | -46.82703 | 36744 ft | 444 kts | 64° |
| 2026-05-09 10:02 | 43.10505 | -46.74943 | 36744 ft | 444 kts | 64° |
| 2026-05-09 10:03 | 43.12999 | -46.67135 | 36744 ft | 444 kts | 64° |
| 2026-05-09 10:03 | 43.15471 | -46.59371 | 36744 ft | 444 kts | 64° |
| 2026-05-09 10:04 | 43.17958 | -46.51536 | 36744 ft | 444 kts | 64° |
| 2026-05-09 10:04 | 43.20411 | -46.43789 | 36744 ft | 444 kts | 64° |
| 2026-05-09 10:05 | 43.22866 | -46.36014 | 36744 ft | 444 kts | 64° |
| 2026-05-09 10:05 | 43.25328 | -46.28192 | 36744 ft | 444 kts | 64° |
| 2026-05-09 10:06 | 43.27781 | -46.20376 | 36744 ft | 444 kts | 64° |
| 2026-05-09 10:06 | 43.30221 | -46.12580 | 36744 ft | 444 kts | 64° |
| 2026-05-09 10:07 | 43.32665 | -46.04747 | 36744 ft | 444 kts | 64° |
| 2026-05-09 10:07 | 43.35094 | -45.96938 | 36744 ft | 444 kts | 64° |
| 2026-05-09 10:08 | 43.37518 | -45.89125 | 36744 ft | 444 kts | 65° |
| 2026-05-09 10:08 | 43.39939 | -45.81295 | 36744 ft | 444 kts | 65° |
| 2026-05-09 10:09 | 43.42361 | -45.73440 | 36744 ft | 444 kts | 65° |
| 2026-05-09 10:09 | 43.44773 | -45.65593 | 36744 ft | 444 kts | 65° |
| 2026-05-09 10:10 | 43.47183 | -45.57729 | 36744 ft | 444 kts | 65° |
| 2026-05-09 10:10 | 43.49585 | -45.49869 | 36744 ft | 444 kts | 65° |
| 2026-05-09 10:11 | 43.51979 | -45.42014 | 36744 ft | 444 kts | 65° |
| 2026-05-09 10:11 | 43.54385 | -45.34096 | 36744 ft | 444 kts | 65° |
| 2026-05-09 10:12 | 43.56767 | -45.26229 | 36744 ft | 444 kts | 65° |
| 2026-05-09 10:12 | 43.59150 | -45.18334 | 36744 ft | 444 kts | 65° |
| 2026-05-09 10:13 | 43.61541 | -45.10388 | 36744 ft | 444 kts | 65° |
| 2026-05-09 10:13 | 43.63913 | -45.02479 | 36744 ft | 444 kts | 65° |
| 2026-05-09 10:14 | 43.66278 | -44.94572 | 36744 ft | 444 kts | 65° |
| 2026-05-09 10:14 | 43.68643 | -44.86640 | 36744 ft | 444 kts | 65° |
| 2026-05-09 10:15 | 43.71002 | -44.78706 | 36744 ft | 444 kts | 65° |
| 2026-05-09 10:15 | 43.73347 | -44.70791 | 36744 ft | 444 kts | 65° |
| 2026-05-09 10:16 | 43.75689 | -44.62862 | 36744 ft | 444 kts | 65° |
| 2026-05-09 10:16 | 43.78031 | -44.54907 | 36744 ft | 444 kts | 65° |
| 2026-05-09 10:17 | 43.80365 | -44.46954 | 36744 ft | 444 kts | 65° |
| 2026-05-09 10:17 | 43.82697 | -44.38986 | 36744 ft | 444 kts | 65° |
| 2026-05-09 10:18 | 43.85021 | -44.31015 | 36744 ft | 444 kts | 65° |
| 2026-05-09 10:18 | 43.87333 | -44.23063 | 36744 ft | 444 kts | 66° |
| 2026-05-09 10:19 | 43.89647 | -44.15076 | 36744 ft | 445 kts | 66° |
| 2026-05-09 10:19 | 43.91940 | -44.07140 | 36744 ft | 445 kts | 66° |
| 2026-05-09 10:20 | 43.94237 | -43.99162 | 36744 ft | 445 kts | 66° |
| 2026-05-09 10:20 | 43.96536 | -43.91153 | 36744 ft | 445 kts | 66° |
| 2026-05-09 10:21 | 43.98823 | -43.83159 | 36744 ft | 445 kts | 66° |
| 2026-05-09 10:21 | 44.01101 | -43.75171 | 36744 ft | 445 kts | 66° |
| 2026-05-09 10:22 | 44.03383 | -43.67144 | 36744 ft | 445 kts | 66° |
| 2026-05-09 10:22 | 44.05653 | -43.59134 | 36744 ft | 445 kts | 66° |
| 2026-05-09 10:23 | 44.07917 | -43.51119 | 36744 ft | 445 kts | 66° |
| 2026-05-09 10:23 | 44.10176 | -43.43095 | 36744 ft | 445 kts | 66° |
| 2026-05-09 10:24 | 44.12436 | -43.35041 | 36744 ft | 445 kts | 66° |
| 2026-05-09 10:24 | 44.14683 | -43.27009 | 36744 ft | 445 kts | 66° |
| 2026-05-09 10:25 | 44.16930 | -43.18949 | 36744 ft | 445 kts | 66° |
| 2026-05-09 10:25 | 44.19167 | -43.10896 | 36744 ft | 445 kts | 66° |
| 2026-05-09 10:26 | 44.21404 | -43.02819 | 36744 ft | 445 kts | 66° |
| 2026-05-09 10:26 | 44.23631 | -42.94752 | 36744 ft | 445 kts | 66° |
| 2026-05-09 10:27 | 44.25857 | -42.86660 | 36744 ft | 445 kts | 66° |
| 2026-05-09 10:27 | 44.28079 | -42.78557 | 36744 ft | 445 kts | 66° |
| 2026-05-09 10:28 | 44.30289 | -42.70473 | 36744 ft | 445 kts | 66° |
| 2026-05-09 10:28 | 44.32498 | -42.62361 | 36744 ft | 445 kts | 67° |
| 2026-05-09 10:29 | 44.34701 | -42.54250 | 36744 ft | 445 kts | 67° |
| 2026-05-09 10:29 | 44.36895 | -42.46140 | 36744 ft | 445 kts | 67° |
| 2026-05-09 10:30 | 44.39075 | -42.38056 | 36744 ft | 445 kts | 67° |
| 2026-05-09 10:30 | 44.41271 | -42.29885 | 36744 ft | 445 kts | 67° |
| 2026-05-09 10:31 | 44.43431 | -42.21820 | 36744 ft | 445 kts | 67° |
| 2026-05-09 10:31 | 44.45609 | -42.13659 | 36744 ft | 445 kts | 67° |
| 2026-05-09 10:32 | 44.47771 | -42.05533 | 36744 ft | 445 kts | 67° |
| 2026-05-09 10:32 | 44.49930 | -41.97388 | 36744 ft | 445 kts | 67° |
| 2026-05-09 10:33 | 44.52089 | -41.89218 | 36744 ft | 445 kts | 67° |
| 2026-05-09 10:33 | 44.54235 | -41.81067 | 36744 ft | 445 kts | 67° |
| 2026-05-09 10:34 | 44.56382 | -41.72883 | 36744 ft | 445 kts | 67° |
| 2026-05-09 10:34 | 44.59590 | -41.60605 | 36744 ft | 445 kts | 67° |
| 2026-05-09 10:35 | 44.61715 | -41.52436 | 36744 ft | 445 kts | 68° |
| 2026-05-09 10:35 | 44.63844 | -41.44225 | 36744 ft | 445 kts | 68° |
| 2026-05-09 10:36 | 44.65964 | -41.36016 | 36744 ft | 445 kts | 68° |
| 2026-05-09 10:36 | 44.68079 | -41.27798 | 36744 ft | 445 kts | 68° |
| 2026-05-09 10:37 | 44.70184 | -41.19593 | 36744 ft | 445 kts | 68° |
| 2026-05-09 10:37 | 44.72282 | -41.11384 | 36744 ft | 445 kts | 68° |
| 2026-05-09 10:38 | 44.74385 | -41.03126 | 36744 ft | 445 kts | 68° |
| 2026-05-09 10:38 | 44.76474 | -40.94897 | 36744 ft | 445 kts | 68° |
| 2026-05-09 10:39 | 44.78558 | -40.86655 | 36744 ft | 445 kts | 68° |
| 2026-05-09 10:39 | 44.80632 | -40.78421 | 36744 ft | 445 kts | 68° |
| 2026-05-09 10:40 | 44.82354 | -40.71565 | 36744 ft | 445 kts | 68° |
| 2026-05-09 10:40 | 44.84427 | -40.63283 | 36744 ft | 446 kts | 68° |
| 2026-05-09 10:41 | 44.86487 | -40.55024 | 36744 ft | 446 kts | 68° |
| 2026-05-09 10:41 | 44.88876 | -40.45406 | 36744 ft | 446 kts | 68° |
| 2026-05-09 10:42 | 44.90601 | -40.38436 | 36744 ft | 446 kts | 68° |
| 2026-05-09 10:42 | 44.92651 | -40.30122 | 36744 ft | 446 kts | 68° |
| 2026-05-09 10:43 | 44.94689 | -40.21824 | 36744 ft | 446 kts | 68° |
| 2026-05-09 10:43 | 44.96708 | -40.13571 | 36744 ft | 446 kts | 68° |
| 2026-05-09 10:44 | 44.98725 | -40.05289 | 36744 ft | 446 kts | 68° |
| 2026-05-09 10:44 | 45.00757 | -39.96991 | 36744 ft | 445 kts | 68° |
| 2026-05-09 10:46 | 45.05964 | -39.76318 | 36744 ft | 446 kts | 68° |
| 2026-05-09 10:46 | 45.08048 | -39.67966 | 36744 ft | 446 kts | 68° |
| 2026-05-09 10:47 | 45.10104 | -39.59684 | 36744 ft | 446 kts | 68° |
| 2026-05-09 10:47 | 45.12158 | -39.51383 | 36744 ft | 446 kts | 68° |
| 2026-05-09 10:48 | 45.14207 | -39.43065 | 36744 ft | 446 kts | 68° |
| 2026-05-09 10:48 | 45.16247 | -39.34757 | 36744 ft | 446 kts | 68° |
| 2026-05-09 10:49 | 45.18286 | -39.26417 | 36744 ft | 446 kts | 68° |
| 2026-05-09 10:49 | 45.20315 | -39.18093 | 36744 ft | 446 kts | 68° |
| 2026-05-09 10:50 | 45.22336 | -39.09769 | 36744 ft | 446 kts | 68° |
| 2026-05-09 10:50 | 45.24362 | -39.01391 | 36744 ft | 446 kts | 69° |
| 2026-05-09 10:51 | 45.26373 | -38.93048 | 36744 ft | 446 kts | 69° |
| 2026-05-09 10:51 | 45.28363 | -38.84758 | 36744 ft | 446 kts | 69° |
| 2026-05-09 10:52 | 45.30359 | -38.76414 | 36744 ft | 446 kts | 69° |
| 2026-05-09 10:52 | 45.32352 | -38.68048 | 36744 ft | 446 kts | 69° |
| 2026-05-09 10:53 | 45.34336 | -38.59691 | 36744 ft | 446 kts | 69° |
| 2026-05-09 10:53 | 45.36326 | -38.51277 | 36744 ft | 446 kts | 69° |
| 2026-05-09 10:54 | 45.38298 | -38.42905 | 36744 ft | 446 kts | 69° |
| 2026-05-09 10:54 | 45.40278 | -38.34469 | 36744 ft | 446 kts | 69° |
| 2026-05-09 10:55 | 45.42252 | -38.26027 | 36744 ft | 446 kts | 69° |
| 2026-05-09 10:55 | 45.44207 | -38.17633 | 36744 ft | 446 kts | 69° |
| 2026-05-09 10:56 | 45.46162 | -38.09205 | 36744 ft | 446 kts | 69° |
| 2026-05-09 10:56 | 45.48108 | -38.00784 | 36744 ft | 446 kts | 69° |
| 2026-05-09 10:57 | 45.50052 | -37.92340 | 36744 ft | 446 kts | 69° |
| 2026-05-09 10:57 | 45.51988 | -37.83899 | 36744 ft | 446 kts | 69° |
| 2026-05-09 10:58 | 45.53919 | -37.75444 | 36744 ft | 446 kts | 69° |
| 2026-05-09 10:58 | 45.55844 | -37.66987 | 36744 ft | 446 kts | 69° |
| 2026-05-09 10:59 | 45.57759 | -37.58535 | 36744 ft | 446 kts | 69° |
| 2026-05-09 10:59 | 45.59667 | -37.50085 | 36744 ft | 446 kts | 69° |
| 2026-05-09 11:00 | 45.61553 | -37.41696 | 36744 ft | 446 kts | 70° |
| 2026-05-09 11:00 | 45.63452 | -37.33218 | 36744 ft | 446 kts | 70° |
| 2026-05-09 11:01 | 45.65342 | -37.24745 | 36744 ft | 446 kts | 70° |
| 2026-05-09 11:01 | 45.67253 | -37.16143 | 36744 ft | 446 kts | 70° |
| 2026-05-09 11:02 | 45.69144 | -37.07600 | 36744 ft | 446 kts | 70° |
| 2026-05-09 11:02 | 45.71015 | -36.99108 | 36744 ft | 446 kts | 70° |
| 2026-05-09 11:03 | 45.72881 | -36.90608 | 36744 ft | 446 kts | 70° |
| 2026-05-09 11:03 | 45.74748 | -36.82070 | 36744 ft | 446 kts | 70° |
| 2026-05-09 11:04 | 45.76597 | -36.73576 | 36744 ft | 447 kts | 70° |
| 2026-05-09 11:04 | 45.78448 | -36.65041 | 36744 ft | 447 kts | 70° |
| 2026-05-09 11:05 | 45.80286 | -36.56528 | 36744 ft | 447 kts | 70° |
| 2026-05-09 11:05 | 45.82122 | -36.47991 | 36744 ft | 447 kts | 70° |
| 2026-05-09 11:06 | 45.83948 | -36.39466 | 36744 ft | 447 kts | 70° |
| 2026-05-09 11:06 | 45.85770 | -36.30925 | 36744 ft | 447 kts | 70° |
| 2026-05-09 11:07 | 45.87592 | -36.22346 | 36744 ft | 447 kts | 70° |
| 2026-05-09 11:07 | 45.89405 | -36.13778 | 36744 ft | 447 kts | 70° |
| 2026-05-09 11:08 | 45.91193 | -36.05289 | 36744 ft | 447 kts | 70° |
| 2026-05-09 11:08 | 45.92999 | -35.96676 | 36744 ft | 447 kts | 70° |
| 2026-05-09 11:09 | 45.94788 | -35.88115 | 36744 ft | 447 kts | 70° |
| 2026-05-09 11:09 | 45.96572 | -35.79536 | 36744 ft | 447 kts | 71° |
| 2026-05-09 11:10 | 45.98353 | -35.70937 | 36744 ft | 447 kts | 71° |
| 2026-05-09 11:10 | 46.00126 | -35.62340 | 36744 ft | 447 kts | 71° |
| 2026-05-09 11:11 | 46.01888 | -35.53756 | 36744 ft | 447 kts | 71° |
| 2026-05-09 11:11 | 46.03655 | -35.45117 | 36744 ft | 447 kts | 71° |
| 2026-05-09 11:12 | 46.05404 | -35.36525 | 36744 ft | 447 kts | 71° |
| 2026-05-09 11:12 | 46.07154 | -35.27892 | 36744 ft | 447 kts | 71° |
| 2026-05-09 11:13 | 46.08898 | -35.19251 | 36744 ft | 447 kts | 71° |
| 2026-05-09 11:13 | 46.10635 | -35.10603 | 36744 ft | 447 kts | 71° |
| 2026-05-09 11:14 | 46.12364 | -35.01962 | 36744 ft | 447 kts | 71° |
| 2026-05-09 11:14 | 46.14087 | -34.93310 | 36744 ft | 447 kts | 71° |
| 2026-05-09 11:15 | 46.15803 | -34.84656 | 36744 ft | 447 kts | 71° |
| 2026-05-09 11:15 | 46.17513 | -34.75997 | 36744 ft | 447 kts | 71° |
| 2026-05-09 11:16 | 46.19214 | -34.67342 | 36744 ft | 447 kts | 71° |
| 2026-05-09 11:16 | 46.20910 | -34.58672 | 36744 ft | 447 kts | 71° |
| 2026-05-09 11:17 | 46.22598 | -34.50007 | 36744 ft | 447 kts | 71° |
| 2026-05-09 11:17 | 46.24279 | -34.41339 | 36744 ft | 447 kts | 71° |
| 2026-05-09 11:18 | 46.25952 | -34.32674 | 36744 ft | 447 kts | 71° |
| 2026-05-09 11:18 | 46.27627 | -34.23958 | 36744 ft | 447 kts | 72° |
| 2026-05-09 11:19 | 46.29293 | -34.15249 | 36744 ft | 447 kts | 72° |
| 2026-05-09 11:19 | 46.30942 | -34.06592 | 36744 ft | 447 kts | 72° |
| 2026-05-09 11:20 | 46.32591 | -33.97891 | 36744 ft | 447 kts | 72° |
| 2026-05-09 11:20 | 46.34233 | -33.89189 | 36744 ft | 447 kts | 72° |
| 2026-05-09 11:21 | 46.35867 | -33.80490 | 36744 ft | 447 kts | 72° |
| 2026-05-09 11:21 | 46.37497 | -33.71773 | 36744 ft | 447 kts | 72° |
| 2026-05-09 11:22 | 46.39126 | -33.63016 | 36744 ft | 447 kts | 72° |
| 2026-05-09 11:22 | 46.40743 | -33.54289 | 36744 ft | 448 kts | 72° |
| 2026-05-09 11:23 | 46.42362 | -33.45506 | 36744 ft | 448 kts | 72° |
| 2026-05-09 11:23 | 46.43966 | -33.36761 | 36744 ft | 448 kts | 72° |
| 2026-05-09 11:24 | 46.45561 | -33.28025 | 36744 ft | 448 kts | 72° |
| 2026-05-09 11:24 | 46.47162 | -33.19214 | 36744 ft | 448 kts | 72° |
| 2026-05-09 11:25 | 46.48743 | -33.10472 | 36744 ft | 448 kts | 72° |
| 2026-05-09 11:25 | 46.50325 | -33.01683 | 36744 ft | 448 kts | 72° |
| 2026-05-09 11:26 | 46.51895 | -32.92918 | 36744 ft | 448 kts | 72° |
| 2026-05-09 11:26 | 46.53455 | -32.84163 | 36744 ft | 448 kts | 72° |
| 2026-05-09 11:27 | 46.55019 | -32.75351 | 36744 ft | 448 kts | 72° |
| 2026-05-09 11:27 | 46.56576 | -32.66526 | 36744 ft | 448 kts | 73° |
| 2026-05-09 11:28 | 46.58119 | -32.57744 | 36744 ft | 448 kts | 73° |
| 2026-05-09 11:28 | 46.59655 | -32.48951 | 36744 ft | 448 kts | 73° |
| 2026-05-09 11:29 | 46.60927 | -32.41643 | 36744 ft | 448 kts | 73° |
| 2026-05-09 11:29 | 46.62465 | -32.32758 | 36744 ft | 448 kts | 73° |
| 2026-05-09 11:30 | 46.63986 | -32.23931 | 36744 ft | 448 kts | 73° |
| 2026-05-09 11:30 | 46.65495 | -32.15132 | 36744 ft | 448 kts | 73° |
| 2026-05-09 11:31 | 46.67010 | -32.06249 | 36744 ft | 448 kts | 73° |
| 2026-05-09 11:31 | 46.68507 | -31.97429 | 36744 ft | 448 kts | 73° |
| 2026-05-09 11:32 | 46.70000 | -31.88582 | 36744 ft | 448 kts | 73° |
| 2026-05-09 11:32 | 46.71485 | -31.79742 | 36744 ft | 448 kts | 73° |
| 2026-05-09 11:33 | 46.72962 | -31.70904 | 36744 ft | 448 kts | 73° |
| 2026-05-09 11:33 | 46.75165 | -31.57635 | 36744 ft | 448 kts | 73° |
| 2026-05-09 11:34 | 46.76633 | -31.48739 | 36744 ft | 448 kts | 73° |
| 2026-05-09 11:34 | 46.78085 | -31.39888 | 36744 ft | 448 kts | 73° |
| 2026-05-09 11:35 | 46.79532 | -31.31027 | 36744 ft | 448 kts | 73° |
| 2026-05-09 11:35 | 46.80978 | -31.22116 | 36744 ft | 448 kts | 73° |
| 2026-05-09 11:36 | 46.82417 | -31.13211 | 36744 ft | 448 kts | 74° |
| 2026-05-09 11:36 | 46.83835 | -31.04382 | 36744 ft | 448 kts | 74° |
| 2026-05-09 11:37 | 46.85258 | -30.95474 | 36744 ft | 448 kts | 74° |
| 2026-05-09 11:37 | 46.86670 | -30.86589 | 36744 ft | 448 kts | 74° |
| 2026-05-09 11:38 | 46.88080 | -30.77666 | 36744 ft | 448 kts | 74° |
| 2026-05-09 11:38 | 46.89479 | -30.68765 | 36744 ft | 448 kts | 74° |
| 2026-05-09 11:39 | 46.90870 | -30.59868 | 36744 ft | 449 kts | 74° |
| 2026-05-09 11:40 | 46.92947 | -30.46489 | 36744 ft | 449 kts | 74° |
| 2026-05-09 11:40 | 46.94320 | -30.37574 | 36744 ft | 449 kts | 74° |
| 2026-05-09 11:41 | 46.95692 | -30.28620 | 36744 ft | 449 kts | 74° |
| 2026-05-09 11:41 | 46.97056 | -30.19659 | 36744 ft | 449 kts | 74° |
| 2026-05-09 11:42 | 46.98398 | -30.10785 | 36744 ft | 449 kts | 75° |
| 2026-05-09 11:42 | 46.99747 | -30.01817 | 36744 ft | 449 kts | 75° |
| 2026-05-09 11:43 | 47.01083 | -29.92807 | 36744 ft | 449 kts | 75° |
| 2026-05-09 11:43 | 47.02384 | -29.83864 | 36744 ft | 449 kts | 75° |
| 2026-05-09 11:44 | 47.03679 | -29.74887 | 36744 ft | 449 kts | 75° |
| 2026-05-09 11:44 | 47.04967 | -29.65896 | 36744 ft | 449 kts | 75° |
| 2026-05-09 11:45 | 47.06252 | -29.56877 | 36744 ft | 449 kts | 75° |
| 2026-05-09 11:45 | 47.07526 | -29.47875 | 36744 ft | 449 kts | 75° |
| 2026-05-09 11:46 | 47.08800 | -29.38826 | 36744 ft | 449 kts | 75° |
| 2026-05-09 11:46 | 47.10058 | -29.29832 | 36744 ft | 449 kts | 75° |
| 2026-05-09 11:47 | 47.11313 | -29.20799 | 36744 ft | 449 kts | 75° |
| 2026-05-09 11:47 | 47.12556 | -29.11807 | 36744 ft | 449 kts | 75° |
| 2026-05-09 11:48 | 47.13793 | -29.02798 | 36744 ft | 449 kts | 76° |
| 2026-05-09 11:48 | 47.15022 | -28.93790 | 36744 ft | 449 kts | 76° |
| 2026-05-09 11:49 | 47.16247 | -28.84762 | 36744 ft | 449 kts | 76° |
| 2026-05-09 11:49 | 47.17461 | -28.75751 | 36744 ft | 449 kts | 76° |
| 2026-05-09 11:50 | 47.18673 | -28.66706 | 36744 ft | 449 kts | 76° |
| 2026-05-09 11:50 | 47.19875 | -28.57669 | 36744 ft | 449 kts | 76° |
| 2026-05-09 11:51 | 47.21069 | -28.48642 | 36744 ft | 449 kts | 76° |
| 2026-05-09 11:51 | 47.22257 | -28.39600 | 36744 ft | 449 kts | 76° |
| 2026-05-09 11:52 | 47.23444 | -28.30504 | 36744 ft | 449 kts | 76° |
| 2026-05-09 11:52 | 47.24618 | -28.21458 | 36744 ft | 449 kts | 76° |
| 2026-05-09 11:53 | 47.25785 | -28.12396 | 36744 ft | 450 kts | 76° |
| 2026-05-09 11:53 | 47.26944 | -28.03345 | 36744 ft | 450 kts | 76° |
| 2026-05-09 11:54 | 47.28098 | -27.94273 | 36744 ft | 450 kts | 76° |
| 2026-05-09 11:54 | 47.29244 | -27.85199 | 36744 ft | 450 kts | 76° |
| 2026-05-09 11:55 | 47.30386 | -27.76095 | 36744 ft | 450 kts | 76° |
| 2026-05-09 11:56 | 47.33758 | -27.48851 | 36744 ft | 450 kts | 77° |
| 2026-05-09 11:57 | 47.34873 | -27.39726 | 36744 ft | 450 kts | 77° |
| 2026-05-09 11:57 | 47.35975 | -27.30634 | 36744 ft | 450 kts | 77° |
| 2026-05-09 11:58 | 47.37071 | -27.21531 | 36744 ft | 450 kts | 77° |
| 2026-05-09 11:58 | 47.38163 | -27.12396 | 36744 ft | 450 kts | 77° |
| 2026-05-09 11:59 | 47.39247 | -27.03269 | 36744 ft | 450 kts | 77° |
| 2026-05-09 11:59 | 47.40322 | -26.94148 | 36744 ft | 450 kts | 77° |
| 2026-05-09 12:00 | 47.41393 | -26.85004 | 36744 ft | 450 kts | 77° |
| 2026-05-09 12:00 | 47.42455 | -26.75858 | 36744 ft | 450 kts | 77° |
| 2026-05-09 12:01 | 47.43508 | -26.66731 | 36744 ft | 450 kts | 77° |
| 2026-05-09 12:01 | 47.44557 | -26.57570 | 36744 ft | 450 kts | 77° |
| 2026-05-09 12:02 | 47.45590 | -26.48489 | 36744 ft | 450 kts | 77° |
| 2026-05-09 12:02 | 47.46630 | -26.39266 | 36744 ft | 450 kts | 77° |
| 2026-05-09 12:03 | 47.47657 | -26.30103 | 36744 ft | 450 kts | 77° |
| 2026-05-09 12:03 | 47.48686 | -26.20846 | 36744 ft | 450 kts | 77° |
| 2026-05-09 12:04 | 47.49696 | -26.11687 | 36744 ft | 450 kts | 77° |
| 2026-05-09 12:04 | 47.50701 | -26.02504 | 36744 ft | 450 kts | 77° |
| 2026-05-09 12:05 | 47.51698 | -25.93328 | 36744 ft | 450 kts | 78° |
| 2026-05-09 12:05 | 47.52693 | -25.84095 | 36744 ft | 450 kts | 78° |
| 2026-05-09 12:06 | 47.53674 | -25.74927 | 36744 ft | 450 kts | 78° |
| 2026-05-09 12:06 | 47.54646 | -25.65760 | 36744 ft | 450 kts | 78° |
| 2026-05-09 12:07 | 47.55619 | -25.56524 | 36744 ft | 450 kts | 78° |
| 2026-05-09 12:07 | 47.56577 | -25.47345 | 36744 ft | 450 kts | 78° |
| 2026-05-09 12:08 | 47.57522 | -25.38230 | 36744 ft | 451 kts | 78° |
| 2026-05-09 12:08 | 47.58478 | -25.28920 | 36744 ft | 451 kts | 78° |
| 2026-05-09 12:09 | 47.59411 | -25.19775 | 36743 ft | 451 kts | 78° |
| 2026-05-09 12:09 | 47.60340 | -25.10581 | 36744 ft | 451 kts | 78° |
| 2026-05-09 12:10 | 47.62150 | -24.92456 | 36744 ft | 451 kts | 78° |
| 2026-05-09 12:11 | 47.63060 | -24.83220 | 36744 ft | 451 kts | 78° |
| 2026-05-09 12:11 | 47.63960 | -24.74016 | 36744 ft | 451 kts | 78° |
| 2026-05-09 12:12 | 47.64855 | -24.64785 | 36744 ft | 451 kts | 78° |
| 2026-05-09 12:12 | 47.65744 | -24.55538 | 36744 ft | 451 kts | 78° |
| 2026-05-09 12:13 | 47.66623 | -24.46313 | 36744 ft | 451 kts | 79° |
| 2026-05-09 12:13 | 47.67497 | -24.37060 | 36744 ft | 451 kts | 79° |
| 2026-05-09 12:14 | 47.68363 | -24.27805 | 36744 ft | 451 kts | 79° |
| 2026-05-09 12:14 | 47.69223 | -24.18532 | 36744 ft | 451 kts | 79° |
| 2026-05-09 12:15 | 47.69938 | -24.10757 | 36744 ft | 451 kts | 79° |
| 2026-05-09 12:15 | 47.70776 | -24.01576 | 36744 ft | 451 kts | 79° |
| 2026-05-09 12:16 | 47.71613 | -23.92319 | 36744 ft | 451 kts | 79° |
| 2026-05-09 12:16 | 47.72444 | -23.83035 | 36744 ft | 451 kts | 79° |
| 2026-05-09 12:17 | 47.73265 | -23.73786 | 36744 ft | 451 kts | 79° |
| 2026-05-09 12:17 | 47.74078 | -23.64534 | 36744 ft | 451 kts | 79° |
| 2026-05-09 12:18 | 47.74889 | -23.55217 | 36744 ft | 451 kts | 79° |
| 2026-05-09 12:18 | 47.75691 | -23.45919 | 36744 ft | 451 kts | 79° |
| 2026-05-09 12:19 | 47.76482 | -23.36654 | 36744 ft | 451 kts | 79° |
| 2026-05-09 12:19 | 47.77264 | -23.27414 | 36744 ft | 451 kts | 79° |
| 2026-05-09 12:20 | 47.78046 | -23.18078 | 36744 ft | 451 kts | 79° |
| 2026-05-09 12:20 | 47.78814 | -23.08806 | 36744 ft | 451 kts | 79° |
| 2026-05-09 12:21 | 47.79579 | -22.99487 | 36744 ft | 451 kts | 79° |
| 2026-05-09 12:21 | 47.80330 | -22.90247 | 36744 ft | 451 kts | 80° |
| 2026-05-09 12:22 | 47.81084 | -22.80873 | 36744 ft | 451 kts | 80° |
| 2026-05-09 12:22 | 47.81822 | -22.71599 | 36744 ft | 451 kts | 80° |
| 2026-05-09 12:23 | 47.82560 | -22.62229 | 36744 ft | 451 kts | 80° |
| 2026-05-09 12:23 | 47.83285 | -22.52933 | 36744 ft | 451 kts | 80° |
| 2026-05-09 12:24 | 47.84003 | -22.43623 | 36744 ft | 452 kts | 80° |
| 2026-05-09 12:24 | 47.84712 | -22.34322 | 36744 ft | 452 kts | 80° |
| 2026-05-09 12:25 | 47.85413 | -22.25023 | 36744 ft | 452 kts | 80° |
| 2026-05-09 12:25 | 47.86113 | -22.15656 | 36744 ft | 452 kts | 80° |
| 2026-05-09 12:26 | 47.86801 | -22.06338 | 36744 ft | 452 kts | 80° |
| 2026-05-09 12:26 | 47.87482 | -21.97000 | 36744 ft | 452 kts | 80° |
| 2026-05-09 12:27 | 47.88155 | -21.87678 | 36744 ft | 452 kts | 81° |
| 2026-05-09 12:27 | 47.88820 | -21.78351 | 36744 ft | 452 kts | 81° |
| 2026-05-09 12:28 | 47.89476 | -21.69037 | 36744 ft | 452 kts | 81° |
| 2026-05-09 12:28 | 47.90126 | -21.59698 | 36744 ft | 452 kts | 81° |
| 2026-05-09 12:29 | 47.90767 | -21.50378 | 36744 ft | 452 kts | 81° |
| 2026-05-09 12:29 | 47.91402 | -21.41036 | 36744 ft | 452 kts | 81° |
| 2026-05-09 12:30 | 47.92029 | -21.31694 | 36744 ft | 452 kts | 81° |
| 2026-05-09 12:30 | 47.92950 | -21.17758 | 36744 ft | 452 kts | 81° |
| 2026-05-09 12:31 | 47.93861 | -21.03711 | 36744 ft | 452 kts | 81° |
| 2026-05-09 12:32 | 47.94459 | -20.94336 | 36744 ft | 452 kts | 81° |
| 2026-05-09 12:32 | 47.95048 | -20.84988 | 36744 ft | 452 kts | 81° |
| 2026-05-09 12:33 | 47.95630 | -20.75623 | 36744 ft | 452 kts | 81° |
| 2026-05-09 12:33 | 47.96204 | -20.66236 | 36744 ft | 452 kts | 81° |
| 2026-05-09 12:34 | 47.96772 | -20.56837 | 36744 ft | 452 kts | 81° |
| 2026-05-09 12:34 | 47.97330 | -20.47453 | 36744 ft | 452 kts | 81° |
| 2026-05-09 12:35 | 47.97880 | -20.38084 | 36744 ft | 452 kts | 82° |
| 2026-05-09 12:35 | 47.98423 | -20.28695 | 36744 ft | 452 kts | 82° |
| 2026-05-09 12:36 | 47.98956 | -20.19316 | 36744 ft | 452 kts | 82° |
| 2026-05-09 12:36 | 47.99479 | -20.09940 | 36744 ft | 452 kts | 82° |
| 2026-05-09 12:37 | 47.99986 | -20.00546 | 36743 ft | 453 kts | 83° |
| 2026-05-09 12:37 | 48.00236 | -19.91125 | 36744 ft | 454 kts | 84° |
| 2026-05-09 12:38 | 48.00434 | -19.81629 | 36744 ft | 454 kts | 84° |
| 2026-05-09 12:38 | 48.00622 | -19.72076 | 36744 ft | 454 kts | 85° |
| 2026-05-09 12:39 | 48.00801 | -19.62587 | 36744 ft | 454 kts | 85° |
| 2026-05-09 12:39 | 48.00973 | -19.53084 | 36744 ft | 454 kts | 85° |
| 2026-05-09 12:40 | 48.01135 | -19.43628 | 36744 ft | 454 kts | 85° |
| 2026-05-09 12:40 | 48.01292 | -19.34107 | 36744 ft | 454 kts | 85° |
| 2026-05-09 12:41 | 48.01373 | -19.28929 | 36744 ft | 454 kts | 85° |
| 2026-05-09 12:41 | 48.01516 | -19.19467 | 36744 ft | 454 kts | 85° |
| 2026-05-09 12:42 | 48.01651 | -19.10035 | 36744 ft | 454 kts | 85° |
| 2026-05-09 12:42 | 48.01779 | -19.00549 | 36744 ft | 454 kts | 85° |
| 2026-05-09 12:43 | 48.01899 | -18.91048 | 36744 ft | 454 kts | 85° |
| 2026-05-09 12:43 | 48.02012 | -18.81570 | 36744 ft | 454 kts | 85° |
| 2026-05-09 12:44 | 48.02116 | -18.72114 | 36744 ft | 454 kts | 85° |
| 2026-05-09 12:44 | 48.02212 | -18.62641 | 36744 ft | 454 kts | 85° |
| 2026-05-09 12:45 | 48.02301 | -18.53161 | 36744 ft | 454 kts | 85° |
| 2026-05-09 12:45 | 48.02382 | -18.43708 | 36744 ft | 454 kts | 85° |
| 2026-05-09 12:46 | 48.02455 | -18.34250 | 36744 ft | 454 kts | 85° |
| 2026-05-09 12:46 | 48.02520 | -18.24794 | 36744 ft | 454 kts | 86° |
| 2026-05-09 12:47 | 48.02578 | -18.15268 | 36744 ft | 454 kts | 86° |
| 2026-05-09 12:47 | 48.02628 | -18.05777 | 36744 ft | 454 kts | 86° |
| 2026-05-09 12:48 | 48.02671 | -17.96242 | 36744 ft | 455 kts | 86° |
| 2026-05-09 12:48 | 48.02705 | -17.86766 | 36744 ft | 455 kts | 86° |
| 2026-05-09 12:49 | 48.02731 | -17.77268 | 36744 ft | 455 kts | 86° |
| 2026-05-09 12:49 | 48.02750 | -17.67668 | 36744 ft | 455 kts | 86° |
| 2026-05-09 12:50 | 48.02760 | -17.58179 | 36744 ft | 455 kts | 86° |
| 2026-05-09 12:50 | 48.02763 | -17.48724 | 36744 ft | 455 kts | 86° |
| 2026-05-09 12:51 | 48.02758 | -17.39235 | 36744 ft | 455 kts | 86° |
| 2026-05-09 12:51 | 48.02746 | -17.29771 | 36744 ft | 455 kts | 86° |
| 2026-05-09 12:52 | 48.02725 | -17.20291 | 36744 ft | 455 kts | 86° |
| 2026-05-09 12:52 | 48.02697 | -17.10829 | 36744 ft | 455 kts | 86° |
| 2026-05-09 12:53 | 48.02661 | -17.01362 | 36744 ft | 455 kts | 86° |
| 2026-05-09 12:53 | 48.02617 | -16.91932 | 36744 ft | 455 kts | 86° |
| 2026-05-09 12:54 | 48.02565 | -16.82440 | 36744 ft | 455 kts | 86° |
| 2026-05-09 12:54 | 48.02506 | -16.72967 | 36747 ft | 455 kts | 87° |
| 2026-05-09 12:55 | 48.02438 | -16.63475 | 36745 ft | 455 kts | 87° |
| 2026-05-09 12:55 | 48.02363 | -16.54013 | 36744 ft | 455 kts | 87° |
| 2026-05-09 12:56 | 48.02280 | -16.44545 | 36744 ft | 455 kts | 87° |
| 2026-05-09 12:56 | 48.02189 | -16.35021 | 36744 ft | 455 kts | 87° |
| 2026-05-09 12:57 | 48.02089 | -16.25436 | 36744 ft | 455 kts | 87° |
| 2026-05-09 12:57 | 48.01982 | -16.15919 | 36744 ft | 455 kts | 87° |
| 2026-05-09 12:58 | 48.01867 | -16.06449 | 36744 ft | 455 kts | 87° |
| 2026-05-09 12:58 | 48.01744 | -15.96931 | 36744 ft | 455 kts | 87° |
| 2026-05-09 12:59 | 48.01613 | -15.87429 | 36744 ft | 455 kts | 87° |
| 2026-05-09 12:59 | 48.01475 | -15.77955 | 36744 ft | 455 kts | 87° |
| 2026-05-09 13:00 | 48.01329 | -15.68475 | 36744 ft | 455 kts | 88° |
| 2026-05-09 13:00 | 48.01173 | -15.58939 | 36744 ft | 455 kts | 88° |
| 2026-05-09 13:01 | 48.01037 | -15.50993 | 36744 ft | 455 kts | 88° |
| 2026-05-09 13:01 | 48.00866 | -15.41457 | 36741 ft | 455 kts | 88° |
| 2026-05-09 13:02 | 48.00686 | -15.31964 | 36740 ft | 456 kts | 88° |
| 2026-05-09 13:02 | 48.00496 | -15.22420 | 36741 ft | 456 kts | 88° |
| 2026-05-09 13:03 | 48.00382 | -15.12886 | 36741 ft | 454 kts | 85° |
| 2026-05-09 13:03 | 48.00935 | -15.03439 | 36741 ft | 450 kts | 78° |
| 2026-05-09 13:04 | 48.02253 | -14.94289 | 36742 ft | 448 kts | 71° |
| 2026-05-09 13:04 | 48.04312 | -14.85480 | 36744 ft | 445 kts | 65° |
| 2026-05-09 13:05 | 48.06820 | -14.76907 | 36744 ft | 445 kts | 64° |
| 2026-05-09 13:05 | 48.09354 | -14.68328 | 36744 ft | 445 kts | 64° |
| 2026-05-09 13:06 | 48.11862 | -14.59795 | 36744 ft | 445 kts | 64° |
| 2026-05-09 13:06 | 48.14367 | -14.51230 | 36744 ft | 445 kts | 64° |
| 2026-05-09 13:07 | 48.16847 | -14.42720 | 36744 ft | 445 kts | 64° |
| 2026-05-09 13:07 | 48.19330 | -14.34164 | 36744 ft | 445 kts | 64° |
| 2026-05-09 13:08 | 48.21801 | -14.25620 | 36744 ft | 445 kts | 64° |
| 2026-05-09 13:08 | 48.24280 | -14.17019 | 36744 ft | 445 kts | 64° |
| 2026-05-09 13:09 | 48.26743 | -14.08443 | 36744 ft | 445 kts | 64° |
| 2026-05-09 13:09 | 48.29162 | -13.99990 | 36744 ft | 445 kts | 64° |
| 2026-05-09 13:10 | 48.31671 | -13.91191 | 36744 ft | 446 kts | 64° |
| 2026-05-09 13:10 | 48.34088 | -13.82681 | 36744 ft | 446 kts | 65° |
| 2026-05-09 13:11 | 48.36535 | -13.74039 | 36744 ft | 446 kts | 65° |
| 2026-05-09 13:11 | 48.38958 | -13.65451 | 36744 ft | 446 kts | 65° |
| 2026-05-09 13:12 | 48.41410 | -13.56725 | 36744 ft | 446 kts | 65° |
| 2026-05-09 13:12 | 48.43810 | -13.48156 | 36744 ft | 446 kts | 65° |
| 2026-05-09 13:13 | 48.46247 | -13.39420 | 36744 ft | 446 kts | 65° |
| 2026-05-09 13:13 | 48.48650 | -13.30774 | 36744 ft | 446 kts | 65° |
| 2026-05-09 13:14 | 48.51068 | -13.22047 | 36744 ft | 446 kts | 65° |
| 2026-05-09 13:16 | 48.60580 | -12.87382 | 38739 ft | 445 kts | 65° |
| 2026-05-09 13:16 | 48.62934 | -12.78722 | 38743 ft | 445 kts | 65° |
| 2026-05-09 13:17 | 48.65293 | -12.70015 | 38743 ft | 445 kts | 65° |
| 2026-05-09 13:17 | 48.67649 | -12.61283 | 38744 ft | 445 kts | 65° |
| 2026-05-09 13:18 | 48.70006 | -12.52510 | 38743 ft | 445 kts | 65° |
| 2026-05-09 13:18 | 48.72356 | -12.43731 | 38743 ft | 445 kts | 65° |
| 2026-05-09 13:19 | 48.74676 | -12.35027 | 38744 ft | 445 kts | 66° |
| 2026-05-09 13:19 | 48.76999 | -12.26273 | 38744 ft | 445 kts | 66° |
| 2026-05-09 13:20 | 48.79307 | -12.17543 | 38744 ft | 445 kts | 66° |
| 2026-05-09 13:20 | 48.81944 | -12.09010 | 38743 ft | 443 kts | 58° |
| 2026-05-09 13:21 | 48.85383 | -12.01277 | 38744 ft | 441 kts | 50° |
| 2026-05-09 13:21 | 48.89629 | -11.94367 | 38743 ft | 441 kts | 42° |
| 2026-05-09 13:22 | 48.94451 | -11.88576 | 38745 ft | 441 kts | 36° |
| 2026-05-09 13:22 | 48.99339 | -11.82883 | 38743 ft | 441 kts | 41° |
| 2026-05-09 13:23 | 49.07132 | -11.68469 | 38744 ft | 443 kts | 58° |
| 2026-05-09 13:23 | 49.08614 | -11.64293 | 38743 ft | 444 kts | 62° |
| 2026-05-09 13:24 | 49.11076 | -11.55632 | 38744 ft | 445 kts | 65° |
| 2026-05-09 13:24 | 49.13449 | -11.46815 | 38744 ft | 445 kts | 65° |
| 2026-05-09 13:25 | 49.15801 | -11.38042 | 38744 ft | 445 kts | 65° |
| 2026-05-09 13:26 | 49.19306 | -11.24930 | 38744 ft | 445 kts | 65° |
| 2026-05-09 13:26 | 49.21658 | -11.16095 | 38744 ft | 445 kts | 65° |
| 2026-05-09 13:27 | 49.23981 | -11.07341 | 38744 ft | 445 kts | 65° |
| 2026-05-09 13:27 | 49.26308 | -10.98536 | 38744 ft | 445 kts | 65° |
| 2026-05-09 13:28 | 49.28635 | -10.89695 | 38744 ft | 445 kts | 66° |
| 2026-05-09 13:28 | 49.30958 | -10.80840 | 38743 ft | 445 kts | 66° |
| 2026-05-09 13:29 | 49.33274 | -10.71973 | 38744 ft | 445 kts | 66° |
| 2026-05-09 13:29 | 49.35596 | -10.63052 | 38744 ft | 445 kts | 66° |
| 2026-05-09 13:30 | 49.37886 | -10.54219 | 38744 ft | 445 kts | 66° |
| 2026-05-09 13:30 | 49.40178 | -10.45344 | 38744 ft | 445 kts | 66° |
| 2026-05-09 13:31 | 49.42465 | -10.36452 | 38743 ft | 445 kts | 66° |
| 2026-05-09 13:31 | 49.44805 | -10.27321 | 38744 ft | 445 kts | 66° |
| 2026-05-09 13:32 | 49.47086 | -10.18379 | 38744 ft | 445 kts | 66° |
| 2026-05-09 13:32 | 49.50479 | -10.05021 | 38744 ft | 445 kts | 66° |
| 2026-05-09 13:33 | 49.52728 | -9.96120 | 38743 ft | 445 kts | 66° |
| 2026-05-09 13:33 | 49.54987 | -9.87146 | 38744 ft | 445 kts | 66° |
| 2026-05-09 13:34 | 49.57230 | -9.78201 | 38744 ft | 445 kts | 66° |
| 2026-05-09 13:34 | 49.59455 | -9.69290 | 38744 ft | 445 kts | 66° |
| 2026-05-09 13:35 | 49.61669 | -9.60386 | 38744 ft | 445 kts | 66° |
| 2026-05-09 13:35 | 49.63897 | -9.51391 | 38744 ft | 445 kts | 66° |
| 2026-05-09 13:36 | 49.66104 | -9.42447 | 38744 ft | 445 kts | 67° |
| 2026-05-09 13:36 | 49.68307 | -9.33478 | 38744 ft | 445 kts | 67° |
| 2026-05-09 13:37 | 49.70500 | -9.24519 | 38744 ft | 445 kts | 67° |
| 2026-05-09 13:37 | 49.72694 | -9.15517 | 38744 ft | 445 kts | 67° |
| 2026-05-09 13:38 | 49.74875 | -9.06533 | 38743 ft | 446 kts | 67° |
| 2026-05-09 13:38 | 49.77056 | -8.97514 | 38744 ft | 446 kts | 67° |
| 2026-05-09 13:39 | 49.79231 | -8.88477 | 38744 ft | 446 kts | 67° |
| 2026-05-09 13:39 | 49.81395 | -8.79448 | 38744 ft | 446 kts | 67° |
| 2026-05-09 13:40 | 49.83561 | -8.70372 | 38744 ft | 446 kts | 67° |
| 2026-05-09 13:40 | 49.85707 | -8.61346 | 38743 ft | 446 kts | 67° |
| 2026-05-09 13:41 | 49.87856 | -8.52261 | 38744 ft | 446 kts | 67° |
| 2026-05-09 13:41 | 49.89988 | -8.43211 | 38744 ft | 446 kts | 68° |
| 2026-05-09 13:42 | 49.92110 | -8.34164 | 38744 ft | 446 kts | 68° |
| 2026-05-09 13:42 | 49.94236 | -8.25058 | 38744 ft | 446 kts | 68° |
| 2026-05-09 13:43 | 49.96341 | -8.15990 | 38744 ft | 446 kts | 68° |
| 2026-05-09 13:43 | 49.98441 | -8.06916 | 38744 ft | 446 kts | 68° |
| 2026-05-09 13:44 | 50.00347 | -7.97638 | 38743 ft | 447 kts | 72° |
| 2026-05-09 13:44 | 50.01558 | -7.89792 | 38744 ft | 448 kts | 74° |
| 2026-05-09 13:45 | 50.02947 | -7.80291 | 38744 ft | 448 kts | 74° |
| 2026-05-09 13:45 | 50.04319 | -7.70818 | 38744 ft | 448 kts | 74° |
| 2026-05-09 13:46 | 50.05685 | -7.61339 | 38744 ft | 448 kts | 74° |
| 2026-05-09 13:46 | 50.07048 | -7.51829 | 38744 ft | 448 kts | 74° |
| 2026-05-09 13:47 | 50.08403 | -7.42310 | 38744 ft | 448 kts | 75° |
| 2026-05-09 13:47 | 50.09749 | -7.32802 | 38744 ft | 448 kts | 75° |
| 2026-05-09 13:48 | 50.11086 | -7.23291 | 38744 ft | 448 kts | 75° |
| 2026-05-09 13:48 | 50.12415 | -7.13777 | 38744 ft | 448 kts | 75° |
| 2026-05-09 13:49 | 50.13739 | -7.04237 | 38744 ft | 449 kts | 75° |
| 2026-05-09 13:49 | 50.15054 | -6.94703 | 38744 ft | 449 kts | 75° |
| 2026-05-09 13:50 | 50.16361 | -6.85163 | 38744 ft | 449 kts | 75° |
| 2026-05-09 13:50 | 50.17659 | -6.75625 | 38743 ft | 449 kts | 75° |
| 2026-05-09 13:51 | 50.18957 | -6.66032 | 38744 ft | 449 kts | 75° |
| 2026-05-09 13:51 | 50.20231 | -6.56549 | 38744 ft | 449 kts | 75° |
| 2026-05-09 13:52 | 50.21509 | -6.46980 | 38743 ft | 449 kts | 75° |
| 2026-05-09 13:52 | 50.22780 | -6.37391 | 38744 ft | 449 kts | 75° |
| 2026-05-09 13:53 | 50.24043 | -6.27798 | 38744 ft | 449 kts | 75° |
| 2026-05-09 13:53 | 50.25298 | -6.18209 | 38744 ft | 449 kts | 75° |
| 2026-05-09 13:54 | 50.26550 | -6.08571 | 38744 ft | 449 kts | 75° |
| 2026-05-09 13:54 | 50.27801 | -5.98870 | 38744 ft | 449 kts | 76° |
| 2026-05-09 13:55 | 50.29036 | -5.89235 | 38744 ft | 449 kts | 76° |
| 2026-05-09 13:55 | 50.30271 | -5.79525 | 38744 ft | 449 kts | 76° |
| 2026-05-09 13:56 | 50.31489 | -5.69887 | 38744 ft | 449 kts | 76° |
| 2026-05-09 13:56 | 50.32703 | -5.60206 | 38744 ft | 449 kts | 76° |
| 2026-05-09 13:57 | 50.33903 | -5.50571 | 38744 ft | 449 kts | 76° |
| 2026-05-09 13:57 | 50.35096 | -5.40921 | 38743 ft | 449 kts | 76° |
| 2026-05-09 13:58 | 50.36282 | -5.31260 | 38744 ft | 449 kts | 76° |
| 2026-05-09 13:58 | 50.37458 | -5.21606 | 38744 ft | 449 kts | 76° |
| 2026-05-09 13:59 | 50.38631 | -5.11909 | 38742 ft | 449 kts | 76° |
| 2026-05-09 13:59 | 50.39791 | -5.02245 | 38744 ft | 449 kts | 76° |
| 2026-05-09 14:00 | 50.40559 | -4.95810 | 38743 ft | 450 kts | 76° |
| 2026-05-09 14:00 | 50.42100 | -4.82799 | 38743 ft | 450 kts | 76° |
| 2026-05-09 14:01 | 50.43236 | -4.73119 | 38744 ft | 450 kts | 76° |
| 2026-05-09 14:01 | 50.44410 | -4.63036 | 38743 ft | 450 kts | 76° |
| 2026-05-09 14:02 | 50.45576 | -4.52943 | 38743 ft | 450 kts | 77° |
| 2026-05-09 14:02 | 50.46737 | -4.42810 | 38743 ft | 450 kts | 77° |
| 2026-05-09 14:03 | 50.47888 | -4.32668 | 38744 ft | 450 kts | 77° |
| 2026-05-09 14:03 | 50.49032 | -4.22507 | 38743 ft | 450 kts | 77° |
| 2026-05-09 14:04 | 50.50146 | -4.12520 | 38744 ft | 450 kts | 77° |
| 2026-05-09 14:04 | 50.51269 | -4.02340 | 38744 ft | 451 kts | 77° |
| 2026-05-09 14:05 | 50.52410 | -3.92052 | 38743 ft | 452 kts | 77° |
| 2026-05-09 14:05 | 50.53568 | -3.81822 | 38744 ft | 452 kts | 77° |
| 2026-05-09 14:06 | 50.54668 | -3.71944 | 38741 ft | 451 kts | 77° |
| 2026-05-09 14:06 | 50.55764 | -3.61957 | 38744 ft | 450 kts | 77° |
| 2026-05-09 14:07 | 50.56829 | -3.52197 | 38742 ft | 450 kts | 76° |
| 2026-05-09 14:07 | 50.58211 | -3.42568 | 38744 ft | 448 kts | 71° |
| 2026-05-09 14:08 | 50.60004 | -3.32994 | 38744 ft | 447 kts | 71° |
| 2026-05-09 14:08 | 50.61798 | -3.23521 | 38744 ft | 447 kts | 71° |
| 2026-05-09 14:09 | 50.63615 | -3.13856 | 38744 ft | 447 kts | 71° |
| 2026-05-09 14:09 | 50.65385 | -3.04379 | 38744 ft | 447 kts | 71° |
| 2026-05-09 14:10 | 50.68009 | -2.90227 | 38743 ft | 447 kts | 71° |
| 2026-05-09 14:11 | 50.69769 | -2.80666 | 38743 ft | 447 kts | 71° |
| 2026-05-09 14:11 | 50.71490 | -2.71263 | 38742 ft | 447 kts | 71° |
| 2026-05-09 14:12 | 50.73224 | -2.61725 | 38743 ft | 448 kts | 71° |
| 2026-05-09 14:12 | 50.74955 | -2.52169 | 38743 ft | 448 kts | 71° |
| 2026-05-09 14:13 | 50.76733 | -2.42347 | 38744 ft | 448 kts | 71° |
| 2026-05-09 14:15 | 50.83585 | -2.03841 | 38743 ft | 448 kts | 72° |
| 2026-05-09 14:15 | 50.85317 | -1.93988 | 38744 ft | 448 kts | 71° |
| 2026-05-09 14:16 | 50.87135 | -1.83633 | 38744 ft | 448 kts | 72° |
| 2026-05-09 14:16 | 50.88885 | -1.73568 | 38744 ft | 448 kts | 72° |
| 2026-05-09 14:17 | 50.90637 | -1.63405 | 38743 ft | 448 kts | 72° |
| 2026-05-09 14:17 | 50.92335 | -1.53482 | 38744 ft | 448 kts | 72° |
| 2026-05-09 14:18 | 50.93987 | -1.43771 | 38743 ft | 448 kts | 72° |
| 2026-05-09 14:18 | 50.95566 | -1.33506 | 38744 ft | 449 kts | 76° |
| 2026-05-09 14:19 | 50.96473 | -1.24424 | 38744 ft | 451 kts | 78° |
| 2026-05-09 14:19 | 50.97348 | -1.14406 | 38744 ft | 451 kts | 79° |
| 2026-05-09 14:20 | 50.98217 | -1.04314 | 38743 ft | 451 kts | 79° |
| 2026-05-09 14:20 | 50.99119 | -0.93745 | 38744 ft | 451 kts | 79° |
| 2026-05-09 14:21 | 51.00432 | -0.78179 | 38744 ft | 451 kts | 79° |
| 2026-05-09 14:21 | 51.01286 | -0.67916 | 38742 ft | 452 kts | 79° |
| 2026-05-09 14:22 | 51.02139 | -0.57552 | 38743 ft | 451 kts | 79° |
| 2026-05-09 14:22 | 51.03014 | -0.46796 | 38744 ft | 451 kts | 79° |
| 2026-05-09 14:23 | 51.03720 | -0.38013 | 38744 ft | 451 kts | 79° |
| 2026-05-09 14:23 | 51.04538 | -0.27732 | 38743 ft | 451 kts | 79° |
| 2026-05-09 14:24 | 51.05354 | -0.17340 | 38744 ft | 452 kts | 79° |
| 2026-05-09 14:24 | 51.06039 | -0.08487 | 38744 ft | 452 kts | 79° |
| 2026-05-09 14:25 | 51.06846 | 0.02057 | 38744 ft | 452 kts | 79° |
| 2026-05-09 14:25 | 51.07666 | 0.12723 | 38743 ft | 452 kts | 79° |
| 2026-05-09 14:26 | 51.08475 | 0.23405 | 38743 ft | 452 kts | 80° |
| 2026-05-09 14:26 | 51.09240 | 0.33717 | 38744 ft | 452 kts | 80° |
| 2026-05-09 14:27 | 51.10006 | 0.44239 | 38743 ft | 452 kts | 80° |
| 2026-05-09 14:27 | 51.10737 | 0.54394 | 38743 ft | 452 kts | 80° |
| 2026-05-09 14:28 | 51.11477 | 0.64654 | 38744 ft | 452 kts | 80° |
| 2026-05-09 14:28 | 51.12203 | 0.74860 | 38743 ft | 452 kts | 80° |
| 2026-05-09 14:29 | 51.12900 | 0.84872 | 38743 ft | 452 kts | 80° |
| 2026-05-09 14:29 | 51.13594 | 0.94999 | 38744 ft | 452 kts | 80° |
| 2026-05-09 14:30 | 51.14300 | 1.05471 | 38744 ft | 452 kts | 81° |
| 2026-05-09 14:30 | 51.14982 | 1.15773 | 38742 ft | 452 kts | 81° |
| 2026-05-09 14:31 | 51.15657 | 1.26075 | 38744 ft | 452 kts | 81° |
| 2026-05-09 14:31 | 51.16049 | 1.36163 | 38744 ft | 455 kts | 85° |
| 2026-05-09 14:32 | 51.15821 | 1.46268 | 38744 ft | 457 kts | 90° |
| 2026-05-09 14:32 | 51.15331 | 1.56407 | 38744 ft | 457 kts | 90° |
| 2026-05-09 14:33 | 51.14825 | 1.66586 | 38743 ft | 457 kts | 90° |
| 2026-05-09 14:33 | 51.14317 | 1.76691 | 38744 ft | 457 kts | 90° |
| 2026-05-09 14:34 | 51.13801 | 1.86761 | 38744 ft | 457 kts | 91° |
| 2026-05-09 14:34 | 51.13273 | 1.96901 | 38744 ft | 457 kts | 91° |
| 2026-05-09 14:35 | 51.12760 | 2.07108 | 38744 ft | 457 kts | 90° |
| 2026-05-09 14:35 | 51.12267 | 2.17180 | 38744 ft | 457 kts | 90° |
| 2026-05-09 14:36 | 51.11754 | 2.27313 | 38744 ft | 457 kts | 91° |
| 2026-05-09 14:36 | 51.11223 | 2.37502 | 38744 ft | 457 kts | 91° |
| 2026-05-09 14:37 | 51.10688 | 2.47536 | 38744 ft | 457 kts | 91° |
| 2026-05-09 14:37 | 51.10125 | 2.57669 | 38743 ft | 458 kts | 92° |
| 2026-05-09 14:38 | 51.09116 | 2.67774 | 38743 ft | 461 kts | 98° |
| 2026-05-09 14:38 | 51.07475 | 2.77755 | 38744 ft | 463 kts | 102° |
| 2026-05-09 14:39 | 51.05606 | 2.87881 | 38744 ft | 463 kts | 102° |
| 2026-05-09 14:39 | 51.03707 | 2.98116 | 38744 ft | 463 kts | 102° |
| 2026-05-09 14:40 | 51.01823 | 3.08226 | 38744 ft | 464 kts | 102° |
| 2026-05-09 14:40 | 50.99874 | 3.18635 | 38744 ft | 464 kts | 102° |
| 2026-05-09 14:41 | 50.97965 | 3.28773 | 38744 ft | 464 kts | 102° |
| 2026-05-09 14:41 | 50.96020 | 3.39041 | 38744 ft | 464 kts | 102° |
| 2026-05-09 14:42 | 50.94016 | 3.49547 | 38744 ft | 464 kts | 102° |
| 2026-05-09 14:42 | 50.92070 | 3.59689 | 38744 ft | 464 kts | 102° |
| 2026-05-09 14:43 | 50.90197 | 3.69511 | 38744 ft | 464 kts | 102° |
| 2026-05-09 14:43 | 50.88358 | 3.79230 | 38744 ft | 464 kts | 102° |
| 2026-05-09 14:44 | 50.86511 | 3.88907 | 38743 ft | 464 kts | 102° |
| 2026-05-09 14:44 | 50.84564 | 3.99026 | 38744 ft | 464 kts | 102° |
| 2026-05-09 14:45 | 50.82530 | 4.09529 | 38742 ft | 464 kts | 102° |
| 2026-05-09 14:45 | 50.80614 | 4.19365 | 38744 ft | 464 kts | 103° |
| 2026-05-09 14:46 | 50.78694 | 4.29169 | 38744 ft | 464 kts | 103° |
| 2026-05-09 14:46 | 50.76738 | 4.39107 | 38743 ft | 465 kts | 103° |
| 2026-05-09 14:47 | 50.74844 | 4.48679 | 38744 ft | 465 kts | 103° |
| 2026-05-09 14:47 | 50.72917 | 4.58366 | 38743 ft | 465 kts | 103° |
| 2026-05-09 14:48 | 50.70883 | 4.68531 | 38743 ft | 465 kts | 103° |
| 2026-05-09 14:48 | 50.68880 | 4.78481 | 38743 ft | 465 kts | 103° |
| 2026-05-09 14:49 | 50.66809 | 4.88710 | 38744 ft | 465 kts | 103° |
| 2026-05-09 14:49 | 50.64752 | 4.98845 | 38743 ft | 465 kts | 103° |
| 2026-05-09 14:50 | 50.62712 | 5.08809 | 38744 ft | 465 kts | 103° |
| 2026-05-09 14:50 | 50.60597 | 5.19053 | 38744 ft | 465 kts | 103° |
| 2026-05-09 14:51 | 50.58530 | 5.29000 | 38744 ft | 466 kts | 103° |
| 2026-05-09 14:51 | 50.56499 | 5.38719 | 38744 ft | 466 kts | 104° |
| 2026-05-09 14:52 | 50.54495 | 5.48253 | 38739 ft | 466 kts | 104° |
| 2026-05-09 14:52 | 50.53408 | 5.53393 | 38576 ft | 461 kts | 104° |
| 2026-05-09 14:52 | 50.52426 | 5.58035 | 38007 ft | 460 kts | 104° |
| 2026-05-09 14:53 | 50.51369 | 5.63167 | 37149 ft | 463 kts | 102° |
| 2026-05-09 14:53 | 50.50491 | 5.67900 | 36435 ft | 465 kts | 102° |
| 2026-05-09 14:53 | 50.49592 | 5.72756 | 35786 ft | 465 kts | 102° |
| 2026-05-09 14:53 | 50.48620 | 5.77971 | 35053 ft | 465 kts | 102° |
| 2026-05-09 14:54 | 50.47673 | 5.83033 | 34266 ft | 467 kts | 102° |
| 2026-05-09 14:54 | 50.46715 | 5.88132 | 33452 ft | 469 kts | 102° |
| 2026-05-09 14:54 | 50.45786 | 5.93056 | 32664 ft | 470 kts | 102° |
| 2026-05-09 14:54 | 50.44828 | 5.98125 | 31775 ft | 474 kts | 102° |
| 2026-05-09 14:55 | 50.43925 | 6.02878 | 31051 ft | 474 kts | 102° |
| 2026-05-09 14:55 | 50.42979 | 6.07846 | 30309 ft | 474 kts | 102° |
| 2026-05-09 14:55 | 50.42028 | 6.12823 | 29564 ft | 473 kts | 103° |
| 2026-05-09 14:55 | 50.41082 | 6.17790 | 28886 ft | 471 kts | 103° |
| 2026-05-09 14:56 | 50.40428 | 6.21207 | 28406 ft | 468 kts | 104° |
| 2026-05-09 14:56 | 50.39235 | 6.27420 | 27536 ft | 463 kts | 105° |
| 2026-05-09 14:56 | 50.38299 | 6.32271 | 26976 ft | 455 kts | 105° |
| 2026-05-09 14:56 | 50.37382 | 6.37153 | 26574 ft | 444 kts | 104° |
| 2026-05-09 14:57 | 50.36639 | 6.42208 | 26140 ft | 438 kts | 101° |
| 2026-05-09 14:57 | 50.36177 | 6.46635 | 25753 ft | 436 kts | 98° |
| 2026-05-09 14:57 | 50.35826 | 6.51541 | 25336 ft | 433 kts | 96° |
| 2026-05-09 14:57 | 50.35538 | 6.56268 | 24930 ft | 431 kts | 97° |
| 2026-05-09 14:58 | 50.35249 | 6.60931 | 24502 ft | 427 kts | 98° |
| 2026-05-09 14:58 | 50.34956 | 6.65566 | 24090 ft | 423 kts | 98° |
| 2026-05-09 14:58 | 50.34698 | 6.69587 | 23713 ft | 420 kts | 98° |
| 2026-05-09 14:58 | 50.34398 | 6.74238 | 23258 ft | 417 kts | 98° |
| 2026-05-09 14:59 | 50.34110 | 6.78754 | 22819 ft | 413 kts | 99° |
| 2026-05-09 14:59 | 50.33686 | 6.83182 | 22367 ft | 408 kts | 105° |
| 2026-05-09 14:59 | 50.32994 | 6.87461 | 21894 ft | 402 kts | 110° |
| 2026-05-09 14:59 | 50.32036 | 6.91599 | 21406 ft | 398 kts | 116° |
| 2026-05-09 15:00 | 50.31291 | 6.94212 | 21096 ft | 396 kts | 118° |
| 2026-05-09 15:00 | 50.29723 | 6.99447 | 20422 ft | 396 kts | 119° |
| 2026-05-09 15:00 | 50.28933 | 7.02068 | 20092 ft | 396 kts | 119° |
| 2026-05-09 15:00 | 50.27382 | 7.07240 | 19494 ft | 394 kts | 119° |
| 2026-05-09 15:01 | 50.25019 | 7.15115 | 18533 ft | 395 kts | 119° |
| 2026-05-09 15:01 | 50.24171 | 7.17934 | 18211 ft | 396 kts | 119° |
| 2026-05-09 15:01 | 50.22962 | 7.21950 | 17738 ft | 395 kts | 119° |
| 2026-05-09 15:02 | 50.21748 | 7.25977 | 17267 ft | 394 kts | 119° |
| 2026-05-09 15:02 | 50.20509 | 7.30089 | 16795 ft | 393 kts | 118° |
| 2026-05-09 15:02 | 50.19354 | 7.34235 | 16332 ft | 394 kts | 115° |
| 2026-05-09 15:02 | 50.18341 | 7.38401 | 15875 ft | 394 kts | 113° |
| 2026-05-09 15:03 | 50.17376 | 7.42467 | 15440 ft | 394 kts | 112° |
| 2026-05-09 15:03 | 50.16388 | 7.46636 | 14995 ft | 394 kts | 112° |
| 2026-05-09 15:03 | 50.15427 | 7.50667 | 14560 ft | 393 kts | 111° |
| 2026-05-09 15:03 | 50.14465 | 7.54689 | 14131 ft | 392 kts | 111° |
| 2026-05-09 15:04 | 50.13452 | 7.58907 | 13682 ft | 390 kts | 111° |
| 2026-05-09 15:04 | 50.12497 | 7.62872 | 13266 ft | 388 kts | 110° |
| 2026-05-09 15:06 | 50.01927 | 7.86702 | 8237 ft | 346 kts | 128° |
| 2026-05-09 15:06 | 50.00384 | 7.89586 | 7044 ft | 350 kts | 128° |
| 2026-05-09 15:06 | 49.98802 | 7.92585 | 5980 ft | 357 kts | 127° |
| 2026-05-09 15:06 | 49.97555 | 7.95974 | 4987 ft | 350 kts | 109° |
| 2026-05-09 15:07 | 49.96817 | 7.99561 | 4252 ft | 337 kts | 104° |
| 2026-05-09 15:07 | 49.96307 | 8.02399 | 3872 ft | 321 kts | 103° |
| 2026-05-09 15:07 | 49.95905 | 8.04688 | 3692 ft | 305 kts | 103° |
| 2026-05-09 15:07 | 49.95513 | 8.06926 | 3672 ft | 284 kts | 103° |
| 2026-05-09 15:08 | 49.95007 | 8.09797 | 3716 ft | 266 kts | 103° |
| 2026-05-09 15:08 | 49.94208 | 8.15129 | 3667 ft | 235 kts | 90° |
| 2026-05-09 15:08 | 49.94279 | 8.17576 | 3666 ft | 217 kts | 77° |
| 2026-05-09 15:09 | 49.94657 | 8.19804 | 3714 ft | 204 kts | 67° |
| 2026-05-09 15:10 | 49.97931 | 8.32954 | 3078 ft | 199 kts | 67° |
| 2026-05-09 15:11 | 49.98394 | 8.34952 | 2787 ft | 189 kts | 67° |
| 2026-05-09 15:11 | 49.98828 | 8.36818 | 2527 ft | 178 kts | 66° |
| 2026-05-09 15:11 | 49.99236 | 8.38565 | 2308 ft | 168 kts | 66° |
| 2026-05-09 15:11 | 49.99642 | 8.40287 | 2099 ft | 167 kts | 66° |
| 2026-05-09 15:12 | 50.00040 | 8.41989 | 1885 ft | 166 kts | 67° |
| 2026-05-09 15:12 | 50.00429 | 8.43720 | 1699 ft | 166 kts | 67° |
| 2026-05-09 15:12 | 50.00819 | 8.45422 | 1462 ft | 165 kts | 67° |
| 2026-05-09 15:12 | 50.01253 | 8.47218 | 1246 ft | 165 kts | 66° |
| 2026-05-09 15:13 | 50.01659 | 8.48904 | 1032 ft | 165 kts | 66° |
| 2026-05-09 15:13 | 50.02129 | 8.50878 | 787 ft | 163 kts | 66° |
| 2026-05-09 15:13 | 50.02645 | 8.52695 | 512 ft | 161 kts | 61° |
| 2026-05-09 15:13 | 50.03078 | 8.54490 | 1205 ft | 178 kts | 71° |
| 2026-05-09 15:14 | 50.03352 | 8.56210 | 1878 ft | 180 kts | 70° |
| 2026-05-09 15:14 | 50.03799 | 8.58127 | 2685 ft | 177 kts | 65° |
| 2026-05-09 15:14 | 50.04296 | 8.60058 | 3512 ft | 178 kts | 65° |
| 2026-05-09 15:14 | 50.04748 | 8.61838 | 4206 ft | 185 kts | 65° |
| 2026-05-09 15:15 | 50.05260 | 8.63912 | 4646 ft | 209 kts | 68° |
| 2026-05-09 15:15 | 50.05518 | 8.65453 | 4697 ft | 216 kts | 76° |
| 2026-05-09 15:15 | 50.05667 | 8.68882 | 4728 ft | 241 kts | 86° |
| 2026-05-09 15:15 | 50.05659 | 8.71506 | 4656 ft | 236 kts | 88° |
| 2026-05-09 15:16 | 50.05635 | 8.74233 | 4666 ft | 235 kts | 88° |
| 2026-05-09 15:16 | 50.05620 | 8.76823 | 4679 ft | 235 kts | 88° |
| 2026-05-09 15:16 | 50.05602 | 8.79413 | 4685 ft | 236 kts | 92° |
| 2026-05-09 15:16 | 50.05040 | 8.81904 | 4839 ft | 256 kts | 126° |
| 2026-05-09 15:17 | 50.03598 | 8.83649 | 5824 ft | 256 kts | 158° |
| 2026-05-09 15:17 | 50.01863 | 8.84065 | 6720 ft | 251 kts | 188° |
| 2026-05-09 15:17 | 50.00212 | 8.83109 | 7383 ft | 249 kts | 219° |
| 2026-05-09 15:17 | 49.99087 | 8.81060 | 7727 ft | 246 kts | 245° |
| 2026-05-09 15:18 | 49.98384 | 8.78620 | 7744 ft | 244 kts | 252° |
| 2026-05-09 15:18 | 49.97763 | 8.76059 | 7746 ft | 244 kts | 253° |
| 2026-05-09 15:18 | 49.97189 | 8.73611 | 7743 ft | 244 kts | 253° |
| 2026-05-09 15:18 | 49.96578 | 8.70989 | 7747 ft | 244 kts | 253° |
| 2026-05-09 15:19 | 49.95982 | 8.68436 | 7745 ft | 244 kts | 253° |
| 2026-05-09 15:19 | 49.95394 | 8.65916 | 7745 ft | 244 kts | 253° |
| 2026-05-09 15:19 | 49.94811 | 8.63423 | 7747 ft | 244 kts | 253° |
| 2026-05-09 15:19 | 49.94227 | 8.60927 | 7746 ft | 244 kts | 253° |
| 2026-05-09 15:20 | 49.93653 | 8.58474 | 7747 ft | 244 kts | 253° |
| 2026-05-09 15:20 | 49.92473 | 8.53441 | 7745 ft | 244 kts | 253° |
| 2026-05-09 15:20 | 49.91884 | 8.50933 | 7746 ft | 244 kts | 253° |
| 2026-05-09 15:21 | 49.91490 | 8.49256 | 7745 ft | 244 kts | 253° |
| 2026-05-09 15:21 | 49.90704 | 8.45912 | 7747 ft | 244 kts | 253° |
| 2026-05-09 15:21 | 49.90123 | 8.43442 | 7745 ft | 244 kts | 253° |
| 2026-05-09 15:21 | 49.89540 | 8.40960 | 7744 ft | 243 kts | 253° |
| 2026-05-09 15:22 | 49.88961 | 8.38509 | 7597 ft | 239 kts | 253° |
| 2026-05-09 15:22 | 49.88386 | 8.36067 | 7240 ft | 241 kts | 253° |
| 2026-05-09 15:22 | 49.87814 | 8.33634 | 6946 ft | 240 kts | 253° |
| 2026-05-09 15:22 | 49.87242 | 8.31197 | 6661 ft | 239 kts | 253° |
| 2026-05-09 15:23 | 49.86678 | 8.28778 | 6356 ft | 237 kts | 253° |
| 2026-05-09 15:23 | 49.86171 | 8.26339 | 6061 ft | 234 kts | 266° |
| 2026-05-09 15:23 | 49.86364 | 8.23907 | 5748 ft | 225 kts | 298° |
| 2026-05-09 15:23 | 49.87370 | 8.22153 | 5549 ft | 213 kts | 329° |
| 2026-05-09 15:24 | 49.88731 | 8.21277 | 5149 ft | 213 kts | 341° |
| 2026-05-09 15:24 | 49.90154 | 8.20592 | 4699 ft | 214 kts | 343° |
| 2026-05-09 15:24 | 49.91581 | 8.19938 | 4320 ft | 213 kts | 344° |
| 2026-05-09 15:24 | 49.93021 | 8.19422 | 3931 ft | 213 kts | 356° |
| 2026-05-09 15:25 | 49.94428 | 8.20060 | 3674 ft | 210 kts | 33° |
| 2026-05-09 15:25 | 49.95276 | 8.21783 | 3676 ft | 196 kts | 62° |
| 2026-05-09 15:25 | 49.95779 | 8.23727 | 3689 ft | 193 kts | 66° |
| 2026-05-09 15:26 | 49.96670 | 8.27646 | 3685 ft | 192 kts | 68° |
| 2026-05-09 15:26 | 49.97119 | 8.29608 | 3504 ft | 192 kts | 67° |
| 2026-05-09 15:26 | 49.97568 | 8.31540 | 3254 ft | 190 kts | 67° |
| 2026-05-09 15:26 | 49.98022 | 8.33476 | 2999 ft | 187 kts | 67° |
| 2026-05-09 15:27 | 49.98454 | 8.35312 | 2743 ft | 174 kts | 66° |
| 2026-05-09 15:27 | 49.98860 | 8.37033 | 2502 ft | 162 kts | 66° |
| 2026-05-09 15:27 | 49.99247 | 8.38664 | 2310 ft | 158 kts | 66° |
| 2026-05-09 15:27 | 49.99632 | 8.40284 | 2102 ft | 157 kts | 66° |
| 2026-05-09 15:28 | 50.00019 | 8.41909 | 1895 ft | 157 kts | 66° |
| 2026-05-09 15:28 | 50.00402 | 8.43526 | 1700 ft | 156 kts | 66° |
| 2026-05-09 15:28 | 50.00659 | 8.44608 | 1553 ft | 156 kts | 66° |
| 2026-05-09 15:28 | 50.01044 | 8.46232 | 1333 ft | 156 kts | 67° |
| 2026-05-09 15:29 | 50.01416 | 8.47798 | 1115 ft | 156 kts | 67° |
| 2026-05-09 15:29 | 50.01794 | 8.49387 | 913 ft | 155 kts | 67° |
| 2026-05-09 15:29 | 50.02179 | 8.51005 | 695 ft | 155 kts | 68° |
| 2026-05-09 15:29 | 50.02555 | 8.52588 | 487 ft | 154 kts | 68° |
| 2026-05-09 15:30 | 50.02925 | 8.54170 | 353 ft | 142 kts | 62° |
| 2026-05-09 15:30 | 50.03216 | 8.55331 | 358 ft | 77 kts | 70° |
| 2026-05-09 15:30 | 50.03373 | 8.55763 | 360 ft | 24 kts | 40° |
| 2026-05-09 15:30 | 50.03464 | 8.55888 | 362 ft | 10 kts | 41° |
| 2026-05-09 15:31 | 50.03495 | 8.55930 | 362 ft | 0 kts | 41° |
| 2026-05-09 15:31 | 50.03501 | 8.55938 | 362 ft | 2 kts | 41° |
| 2026-05-09 15:31 | 50.03502 | 8.55940 | 362 ft | 1 kts | 41° |
| 2026-05-09 15:31 | 50.03509 | 8.55950 | 360 ft | 3 kts | 41° |
| 2026-05-09 15:32 | 50.03526 | 8.55974 | 365 ft | 4 kts | 41° |
| 2026-05-09 15:32 | 50.03556 | 8.56014 | 364 ft | 6 kts | 40° |
| 2026-05-09 15:32 | 50.03597 | 8.56067 | 366 ft | 9 kts | 41° |
| 2026-05-09 15:32 | 50.03644 | 8.56149 | 365 ft | 11 kts | 55° |
| 2026-05-09 15:33 | 50.03685 | 8.56277 | 365 ft | 15 kts | 68° |
| 2026-05-09 15:33 | 50.03726 | 8.56450 | 366 ft | 19 kts | 69° |
| 2026-05-09 15:33 | 50.03756 | 8.56575 | 365 ft | 11 kts | 69° |
| 2026-05-09 15:33 | 50.03789 | 8.56710 | 366 ft | 15 kts | 70° |
| 2026-05-09 15:34 | 50.03832 | 8.56890 | 366 ft | 19 kts | 70° |
| 2026-05-09 15:34 | 50.03882 | 8.57101 | 369 ft | 21 kts | 70° |
| 2026-05-09 15:34 | 50.03937 | 8.57330 | 376 ft | 23 kts | 69° |
| 2026-05-09 15:34 | 50.03996 | 8.57578 | 379 ft | 25 kts | 69° |
| 2026-05-09 15:35 | 50.04055 | 8.57826 | 377 ft | 21 kts | 69° |
| 2026-05-09 15:35 | 50.04106 | 8.58036 | 379 ft | 19 kts | 69° |
| 2026-05-09 15:35 | 50.04176 | 8.58160 | 378 ft | 14 kts | 30° |
| 2026-05-09 15:35 | 50.04198 | 8.58178 | 379 ft | 2 kts | 25° |
| 2026-05-09 15:36 | 50.04202 | 8.58181 | 378 ft | 0 kts | 25° |
| 2026-05-09 15:36 | 50.04204 | 8.58182 | 378 ft | 0 kts | 25° |
| 2026-05-09 15:38 | 50.04220 | 8.58192 | 378 ft | 7 kts | 19° |
| 2026-05-09 15:38 | 50.04332 | 8.58167 | 379 ft | 21 kts | 336° |
| 2026-05-09 15:39 | 50.04482 | 8.58089 | 378 ft | 19 kts | 341° |
| 2026-05-09 15:39 | 50.04586 | 8.58030 | 370 ft | 13 kts | 340° |
| 2026-05-09 15:39 | 50.04606 | 8.58019 | 373 ft | 3 kts | 340° |
| 2026-05-09 15:39 | 50.04611 | 8.58016 | 372 ft | 2 kts | 340° |
| 2026-05-09 15:40 | 50.04620 | 8.58011 | 371 ft | 3 kts | 340° |
| 2026-05-09 15:40 | 50.04660 | 8.57987 | 372 ft | 9 kts | 339° |
| 2026-05-09 15:40 | 50.04699 | 8.57904 | 371 ft | 12 kts | 270° |
| 2026-05-09 15:40 | 50.04675 | 8.57754 | 370 ft | 16 kts | 249° |
| 2026-05-09 15:41 | 50.04628 | 8.57569 | 369 ft | 20 kts | 249° |
| 2026-05-09 15:41 | 50.04572 | 8.57346 | 370 ft | 23 kts | 249° |
| 2026-05-09 15:41 | 50.04522 | 8.57123 | 369 ft | 17 kts | 250° |
| 2026-05-09 15:41 | 50.04490 | 8.56982 | 367 ft | 9 kts | 254° |
| 2026-05-09 15:42 | 50.04510 | 8.56895 | 373 ft | 7 kts | 338° |
| 2026-05-09 15:42 | 50.04571 | 8.56900 | 372 ft | 10 kts | 11° |
| 2026-05-09 15:42 | 50.04632 | 8.56918 | 368 ft | 5 kts | 18° |
| 2026-05-09 15:42 | 50.04651 | 8.56961 | 371 ft | 0 kts | 84° |
| 2026-05-09 15:43 | 50.04652 | 8.56976 | 370 ft | 3 kts | 86° |
| 2026-05-09 15:43 | 50.04653 | 8.57014 | 367 ft | 2 kts | 89° |
| 2026-05-09 15:43 | 50.04653 | 8.57025 | 368 ft | 1 kts | 90° |
| 2026-05-09 15:43 | 50.04653 | 8.57036 | 367 ft | 1 kts | 90° |
| 2026-05-09 15:44 | 50.04653 | 8.57040 | 366 ft | 0 kts | 90° |